<?xml version="1.0" encoding="UTF-8" standalone="no" ?>
<gpx xmlns="http://www.topografix.com/GPX/1/1" xmlns:xsi="http://www.w3.org/2001/XMLSchema-instance" xsi:schemaLocation="http://www.topografix.com/GPX/1/1 http://www.topografix.com/GPX/1/1/gpx.xsd" version="1.1" creator="VisuGPX - https://www.visugpx.com">
  <metadata>
    <name>9608875-2019 j6 tour du leman decouverte</name>
  </metadata>
  <trk>
    <name><![CDATA[9608875-2019 j6 tour du leman decouverte]]></name>
    <trkseg>
      <trkpt lat="46.50633" lon="6.62721">
        <ele>378</ele>
        <time>2019-06-11T19:16:24Z</time>
      </trkpt>
      <trkpt lat="46.5062" lon="6.62748">
        <ele>377</ele>
        <time>2019-06-11T19:16:28Z</time>
      </trkpt>
      <trkpt lat="46.50622" lon="6.62749">
        <ele>377</ele>
        <time>2019-06-11T19:16:28Z</time>
      </trkpt>
      <trkpt lat="46.50622" lon="6.62754">
        <ele>377</ele>
        <time>2019-06-11T19:16:29Z</time>
      </trkpt>
      <trkpt lat="46.50625" lon="6.6276">
        <ele>377</ele>
        <time>2019-06-11T19:16:30Z</time>
      </trkpt>
      <trkpt lat="46.50692" lon="6.62797">
        <ele>379</ele>
        <time>2019-06-11T19:16:43Z</time>
      </trkpt>
      <trkpt lat="46.50691" lon="6.62807">
        <ele>378</ele>
        <time>2019-06-11T19:16:44Z</time>
      </trkpt>
      <trkpt lat="46.507" lon="6.62809">
        <ele>379</ele>
        <time>2019-06-11T19:16:46Z</time>
      </trkpt>
      <trkpt lat="46.50689" lon="6.62975">
        <ele>379</ele>
        <time>2019-06-11T19:17:06Z</time>
      </trkpt>
      <trkpt lat="46.50689" lon="6.63001">
        <ele>379</ele>
        <time>2019-06-11T19:17:09Z</time>
      </trkpt>
      <trkpt lat="46.50693" lon="6.63025">
        <ele>379</ele>
        <time>2019-06-11T19:17:12Z</time>
      </trkpt>
      <trkpt lat="46.50725" lon="6.63149">
        <ele>379</ele>
        <time>2019-06-11T19:17:28Z</time>
      </trkpt>
      <trkpt lat="46.50733" lon="6.63206">
        <ele>378</ele>
        <time>2019-06-11T19:17:36Z</time>
      </trkpt>
      <trkpt lat="46.50734" lon="6.63257">
        <ele>377</ele>
        <time>2019-06-11T19:17:42Z</time>
      </trkpt>
      <trkpt lat="46.50731" lon="6.63299">
        <ele>378</ele>
        <time>2019-06-11T19:17:47Z</time>
      </trkpt>
      <trkpt lat="46.50723" lon="6.63344">
        <ele>378</ele>
        <time>2019-06-11T19:17:53Z</time>
      </trkpt>
      <trkpt lat="46.50625" lon="6.63715">
        <ele>378</ele>
        <time>2019-06-11T19:18:41Z</time>
      </trkpt>
      <trkpt lat="46.50642" lon="6.63726">
        <ele>381</ele>
        <time>2019-06-11T19:18:45Z</time>
      </trkpt>
      <trkpt lat="46.50658" lon="6.63732">
        <ele>383</ele>
        <time>2019-06-11T19:18:48Z</time>
      </trkpt>
      <trkpt lat="46.50669" lon="6.63735">
        <ele>385</ele>
        <time>2019-06-11T19:18:50Z</time>
      </trkpt>
      <trkpt lat="46.50695" lon="6.63738">
        <ele>390</ele>
        <time>2019-06-11T19:18:54Z</time>
      </trkpt>
      <trkpt lat="46.50702" lon="6.63741">
        <ele>391</ele>
        <time>2019-06-11T19:18:55Z</time>
      </trkpt>
      <trkpt lat="46.50715" lon="6.63752">
        <ele>393</ele>
        <time>2019-06-11T19:18:58Z</time>
      </trkpt>
      <trkpt lat="46.50733" lon="6.63747">
        <ele>396</ele>
        <time>2019-06-11T19:19:01Z</time>
      </trkpt>
      <trkpt lat="46.5074" lon="6.6374">
        <ele>397</ele>
        <time>2019-06-11T19:19:03Z</time>
      </trkpt>
      <trkpt lat="46.50781" lon="6.63754">
        <ele>402</ele>
        <time>2019-06-11T19:19:10Z</time>
      </trkpt>
      <trkpt lat="46.50796" lon="6.63756">
        <ele>403</ele>
        <time>2019-06-11T19:19:13Z</time>
      </trkpt>
      <trkpt lat="46.50803" lon="6.63761">
        <ele>404</ele>
        <time>2019-06-11T19:19:14Z</time>
      </trkpt>
      <trkpt lat="46.50838" lon="6.63794">
        <ele>408</ele>
        <time>2019-06-11T19:19:22Z</time>
      </trkpt>
      <trkpt lat="46.50881" lon="6.63714">
        <ele>411</ele>
        <time>2019-06-11T19:19:34Z</time>
      </trkpt>
      <trkpt lat="46.50893" lon="6.63684">
        <ele>413</ele>
        <time>2019-06-11T19:19:39Z</time>
      </trkpt>
      <trkpt lat="46.50931" lon="6.63577">
        <ele>421</ele>
        <time>2019-06-11T19:19:53Z</time>
      </trkpt>
      <trkpt lat="46.50951" lon="6.6353">
        <ele>419</ele>
        <time>2019-06-11T19:20:00Z</time>
      </trkpt>
      <trkpt lat="46.50956" lon="6.63532">
        <ele>420</ele>
        <time>2019-06-11T19:20:01Z</time>
      </trkpt>
      <trkpt lat="46.50959" lon="6.6353">
        <ele>420</ele>
        <time>2019-06-11T19:20:02Z</time>
      </trkpt>
      <trkpt lat="46.50962" lon="6.63525">
        <ele>420</ele>
        <time>2019-06-11T19:20:02Z</time>
      </trkpt>
      <trkpt lat="46.50963" lon="6.6352">
        <ele>420</ele>
        <time>2019-06-11T19:20:03Z</time>
      </trkpt>
      <trkpt lat="46.51001" lon="6.63529">
        <ele>424</ele>
        <time>2019-06-11T19:20:10Z</time>
      </trkpt>
      <trkpt lat="46.51024" lon="6.63538">
        <ele>425</ele>
        <time>2019-06-11T19:20:14Z</time>
      </trkpt>
      <trkpt lat="46.51032" lon="6.63541">
        <ele>425</ele>
        <time>2019-06-11T19:20:16Z</time>
      </trkpt>
      <trkpt lat="46.51051" lon="6.63558">
        <ele>426</ele>
        <time>2019-06-11T19:20:20Z</time>
      </trkpt>
      <trkpt lat="46.51061" lon="6.63569">
        <ele>427</ele>
        <time>2019-06-11T19:20:22Z</time>
      </trkpt>
      <trkpt lat="46.51077" lon="6.63592">
        <ele>427</ele>
        <time>2019-06-11T19:20:26Z</time>
      </trkpt>
      <trkpt lat="46.51084" lon="6.63605">
        <ele>427</ele>
        <time>2019-06-11T19:20:28Z</time>
      </trkpt>
      <trkpt lat="46.51093" lon="6.63635">
        <ele>428</ele>
        <time>2019-06-11T19:20:32Z</time>
      </trkpt>
      <trkpt lat="46.51101" lon="6.63679">
        <ele>429</ele>
        <time>2019-06-11T19:20:37Z</time>
      </trkpt>
      <trkpt lat="46.51097" lon="6.63686">
        <ele>428</ele>
        <time>2019-06-11T19:20:39Z</time>
      </trkpt>
      <trkpt lat="46.51097" lon="6.63707">
        <ele>428</ele>
        <time>2019-06-11T19:20:41Z</time>
      </trkpt>
      <trkpt lat="46.51094" lon="6.63716">
        <ele>428</ele>
        <time>2019-06-11T19:20:42Z</time>
      </trkpt>
      <trkpt lat="46.51095" lon="6.63724">
        <ele>428</ele>
        <time>2019-06-11T19:20:43Z</time>
      </trkpt>
      <trkpt lat="46.51099" lon="6.63729">
        <ele>429</ele>
        <time>2019-06-11T19:20:44Z</time>
      </trkpt>
      <trkpt lat="46.51106" lon="6.6373">
        <ele>429</ele>
        <time>2019-06-11T19:20:46Z</time>
      </trkpt>
      <trkpt lat="46.51121" lon="6.63762">
        <ele>429</ele>
        <time>2019-06-11T19:20:50Z</time>
      </trkpt>
      <trkpt lat="46.51143" lon="6.63796">
        <ele>429</ele>
        <time>2019-06-11T19:20:56Z</time>
      </trkpt>
      <trkpt lat="46.51188" lon="6.63846">
        <ele>431</ele>
        <time>2019-06-11T19:21:06Z</time>
      </trkpt>
      <trkpt lat="46.5123" lon="6.63918">
        <ele>434</ele>
        <time>2019-06-11T19:21:18Z</time>
      </trkpt>
      <trkpt lat="46.51229" lon="6.63929">
        <ele>434</ele>
        <time>2019-06-11T19:21:19Z</time>
      </trkpt>
      <trkpt lat="46.51232" lon="6.63943">
        <ele>434</ele>
        <time>2019-06-11T19:21:21Z</time>
      </trkpt>
      <trkpt lat="46.51235" lon="6.63944">
        <ele>435</ele>
        <time>2019-06-11T19:21:21Z</time>
      </trkpt>
      <trkpt lat="46.51237" lon="6.63941">
        <ele>435</ele>
        <time>2019-06-11T19:21:22Z</time>
      </trkpt>
      <trkpt lat="46.51239" lon="6.63928">
        <ele>435</ele>
        <time>2019-06-11T19:21:23Z</time>
      </trkpt>
      <trkpt lat="46.51278" lon="6.63934">
        <ele>443</ele>
        <time>2019-06-11T19:21:30Z</time>
      </trkpt>
      <trkpt lat="46.5139" lon="6.63948">
        <ele>466</ele>
        <time>2019-06-11T19:21:50Z</time>
      </trkpt>
      <trkpt lat="46.51438" lon="6.63974">
        <ele>474</ele>
        <time>2019-06-11T19:22:00Z</time>
      </trkpt>
      <trkpt lat="46.51452" lon="6.63992">
        <ele>477</ele>
        <time>2019-06-11T19:22:03Z</time>
      </trkpt>
      <trkpt lat="46.51456" lon="6.64016">
        <ele>478</ele>
        <time>2019-06-11T19:22:06Z</time>
      </trkpt>
      <trkpt lat="46.51459" lon="6.64023">
        <ele>478</ele>
        <time>2019-06-11T19:22:07Z</time>
      </trkpt>
      <trkpt lat="46.51464" lon="6.64029">
        <ele>479</ele>
        <time>2019-06-11T19:22:08Z</time>
      </trkpt>
      <trkpt lat="46.51483" lon="6.64049">
        <ele>482</ele>
        <time>2019-06-11T19:22:12Z</time>
      </trkpt>
      <trkpt lat="46.51544" lon="6.64098">
        <ele>486</ele>
        <time>2019-06-11T19:22:25Z</time>
      </trkpt>
      <trkpt lat="46.51612" lon="6.6416">
        <ele>490</ele>
        <time>2019-06-11T19:22:39Z</time>
      </trkpt>
      <trkpt lat="46.51602" lon="6.64162">
        <ele>488</ele>
        <time>2019-06-11T19:22:41Z</time>
      </trkpt>
      <trkpt lat="46.51581" lon="6.64188">
        <ele>486</ele>
        <time>2019-06-11T19:22:46Z</time>
      </trkpt>
      <trkpt lat="46.51558" lon="6.64211">
        <ele>485</ele>
        <time>2019-06-11T19:22:51Z</time>
      </trkpt>
      <trkpt lat="46.51489" lon="6.64302">
        <ele>475</ele>
        <time>2019-06-11T19:23:07Z</time>
      </trkpt>
      <trkpt lat="46.51456" lon="6.64402">
        <ele>462</ele>
        <time>2019-06-11T19:23:21Z</time>
      </trkpt>
      <trkpt lat="46.51452" lon="6.64412">
        <ele>461</ele>
        <time>2019-06-11T19:23:22Z</time>
      </trkpt>
      <trkpt lat="46.51443" lon="6.64425">
        <ele>458</ele>
        <time>2019-06-11T19:23:24Z</time>
      </trkpt>
      <trkpt lat="46.51439" lon="6.6443">
        <ele>457</ele>
        <time>2019-06-11T19:23:25Z</time>
      </trkpt>
      <trkpt lat="46.51434" lon="6.64432">
        <ele>456</ele>
        <time>2019-06-11T19:23:26Z</time>
      </trkpt>
      <trkpt lat="46.51386" lon="6.64442">
        <ele>449</ele>
        <time>2019-06-11T19:23:35Z</time>
      </trkpt>
      <trkpt lat="46.51377" lon="6.64641">
        <ele>446</ele>
        <time>2019-06-11T19:23:59Z</time>
      </trkpt>
      <trkpt lat="46.51379" lon="6.64692">
        <ele>447</ele>
        <time>2019-06-11T19:24:06Z</time>
      </trkpt>
      <trkpt lat="46.51392" lon="6.64813">
        <ele>451</ele>
        <time>2019-06-11T19:24:21Z</time>
      </trkpt>
      <trkpt lat="46.5145" lon="6.64815">
        <ele>461</ele>
        <time>2019-06-11T19:24:31Z</time>
      </trkpt>
      <trkpt lat="46.51456" lon="6.64819">
        <ele>463</ele>
        <time>2019-06-11T19:24:32Z</time>
      </trkpt>
      <trkpt lat="46.51461" lon="6.64827">
        <ele>464</ele>
        <time>2019-06-11T19:24:33Z</time>
      </trkpt>
      <trkpt lat="46.51462" lon="6.64837">
        <ele>465</ele>
        <time>2019-06-11T19:24:35Z</time>
      </trkpt>
      <trkpt lat="46.51464" lon="6.64935">
        <ele>471</ele>
        <time>2019-06-11T19:24:47Z</time>
      </trkpt>
      <trkpt lat="46.5146" lon="6.65046">
        <ele>469</ele>
        <time>2019-06-11T19:25:00Z</time>
      </trkpt>
      <trkpt lat="46.51467" lon="6.65094">
        <ele>470</ele>
        <time>2019-06-11T19:25:06Z</time>
      </trkpt>
      <trkpt lat="46.51474" lon="6.65101">
        <ele>471</ele>
        <time>2019-06-11T19:25:08Z</time>
      </trkpt>
      <trkpt lat="46.51461" lon="6.65134">
        <ele>468</ele>
        <time>2019-06-11T19:25:12Z</time>
      </trkpt>
      <trkpt lat="46.51455" lon="6.65156">
        <ele>467</ele>
        <time>2019-06-11T19:25:15Z</time>
      </trkpt>
      <trkpt lat="46.5145" lon="6.65185">
        <ele>467</ele>
        <time>2019-06-11T19:25:19Z</time>
      </trkpt>
      <trkpt lat="46.51448" lon="6.65226">
        <ele>466</ele>
        <time>2019-06-11T19:25:24Z</time>
      </trkpt>
      <trkpt lat="46.51448" lon="6.65348">
        <ele>464</ele>
        <time>2019-06-11T19:25:39Z</time>
      </trkpt>
      <trkpt lat="46.51436" lon="6.6539">
        <ele>464</ele>
        <time>2019-06-11T19:25:45Z</time>
      </trkpt>
      <trkpt lat="46.51432" lon="6.654">
        <ele>463</ele>
        <time>2019-06-11T19:25:46Z</time>
      </trkpt>
      <trkpt lat="46.51425" lon="6.65398">
        <ele>463</ele>
        <time>2019-06-11T19:25:47Z</time>
      </trkpt>
      <trkpt lat="46.51421" lon="6.65403">
        <ele>463</ele>
        <time>2019-06-11T19:25:48Z</time>
      </trkpt>
      <trkpt lat="46.5142" lon="6.65407">
        <ele>463</ele>
        <time>2019-06-11T19:25:49Z</time>
      </trkpt>
      <trkpt lat="46.51373" lon="6.65442">
        <ele>464</ele>
        <time>2019-06-11T19:25:58Z</time>
      </trkpt>
      <trkpt lat="46.51369" lon="6.65441">
        <ele>463</ele>
        <time>2019-06-11T19:25:59Z</time>
      </trkpt>
      <trkpt lat="46.51363" lon="6.65443">
        <ele>463</ele>
        <time>2019-06-11T19:26:00Z</time>
      </trkpt>
      <trkpt lat="46.51361" lon="6.65446">
        <ele>464</ele>
        <time>2019-06-11T19:26:00Z</time>
      </trkpt>
      <trkpt lat="46.51359" lon="6.65453">
        <ele>464</ele>
        <time>2019-06-11T19:26:01Z</time>
      </trkpt>
      <trkpt lat="46.5136" lon="6.65462">
        <ele>464</ele>
        <time>2019-06-11T19:26:02Z</time>
      </trkpt>
      <trkpt lat="46.51342" lon="6.65476">
        <ele>464</ele>
        <time>2019-06-11T19:26:06Z</time>
      </trkpt>
      <trkpt lat="46.51322" lon="6.65495">
        <ele>464</ele>
        <time>2019-06-11T19:26:10Z</time>
      </trkpt>
      <trkpt lat="46.51285" lon="6.65534">
        <ele>459</ele>
        <time>2019-06-11T19:26:18Z</time>
      </trkpt>
      <trkpt lat="46.5125" lon="6.65577">
        <ele>454</ele>
        <time>2019-06-11T19:26:27Z</time>
      </trkpt>
      <trkpt lat="46.51235" lon="6.65606">
        <ele>452</ele>
        <time>2019-06-11T19:26:31Z</time>
      </trkpt>
      <trkpt lat="46.51232" lon="6.65617">
        <ele>451</ele>
        <time>2019-06-11T19:26:33Z</time>
      </trkpt>
      <trkpt lat="46.51229" lon="6.65635">
        <ele>450</ele>
        <time>2019-06-11T19:26:35Z</time>
      </trkpt>
      <trkpt lat="46.51229" lon="6.65653">
        <ele>450</ele>
        <time>2019-06-11T19:26:37Z</time>
      </trkpt>
      <trkpt lat="46.51239" lon="6.65797">
        <ele>448</ele>
        <time>2019-06-11T19:26:55Z</time>
      </trkpt>
      <trkpt lat="46.51154" lon="6.65842">
        <ele>435</ele>
        <time>2019-06-11T19:27:11Z</time>
      </trkpt>
      <trkpt lat="46.51082" lon="6.65875">
        <ele>429</ele>
        <time>2019-06-11T19:27:24Z</time>
      </trkpt>
      <trkpt lat="46.51056" lon="6.65891">
        <ele>427</ele>
        <time>2019-06-11T19:27:29Z</time>
      </trkpt>
      <trkpt lat="46.51039" lon="6.65907">
        <ele>426</ele>
        <time>2019-06-11T19:27:33Z</time>
      </trkpt>
      <trkpt lat="46.51031" lon="6.65905">
        <ele>425</ele>
        <time>2019-06-11T19:27:34Z</time>
      </trkpt>
      <trkpt lat="46.51026" lon="6.65908">
        <ele>425</ele>
        <time>2019-06-11T19:27:35Z</time>
      </trkpt>
      <trkpt lat="46.51023" lon="6.65916">
        <ele>425</ele>
        <time>2019-06-11T19:27:36Z</time>
      </trkpt>
      <trkpt lat="46.51023" lon="6.65921">
        <ele>425</ele>
        <time>2019-06-11T19:27:37Z</time>
      </trkpt>
      <trkpt lat="46.51026" lon="6.6593">
        <ele>426</ele>
        <time>2019-06-11T19:27:38Z</time>
      </trkpt>
      <trkpt lat="46.51032" lon="6.65934">
        <ele>427</ele>
        <time>2019-06-11T19:27:39Z</time>
      </trkpt>
      <trkpt lat="46.51032" lon="6.65947">
        <ele>427</ele>
        <time>2019-06-11T19:27:41Z</time>
      </trkpt>
      <trkpt lat="46.51016" lon="6.66017">
        <ele>429</ele>
        <time>2019-06-11T19:27:50Z</time>
      </trkpt>
      <trkpt lat="46.50994" lon="6.66088">
        <ele>427</ele>
        <time>2019-06-11T19:28:00Z</time>
      </trkpt>
      <trkpt lat="46.50988" lon="6.66111">
        <ele>427</ele>
        <time>2019-06-11T19:28:03Z</time>
      </trkpt>
      <trkpt lat="46.50973" lon="6.66194">
        <ele>426</ele>
        <time>2019-06-11T19:28:13Z</time>
      </trkpt>
      <trkpt lat="46.50947" lon="6.66313">
        <ele>421</ele>
        <time>2019-06-11T19:28:28Z</time>
      </trkpt>
      <trkpt lat="46.50933" lon="6.66315">
        <ele>419</ele>
        <time>2019-06-11T19:28:31Z</time>
      </trkpt>
      <trkpt lat="46.50907" lon="6.66328">
        <ele>416</ele>
        <time>2019-06-11T19:28:36Z</time>
      </trkpt>
      <trkpt lat="46.50898" lon="6.66335">
        <ele>414</ele>
        <time>2019-06-11T19:28:38Z</time>
      </trkpt>
      <trkpt lat="46.50886" lon="6.66347">
        <ele>411</ele>
        <time>2019-06-11T19:28:40Z</time>
      </trkpt>
      <trkpt lat="46.50871" lon="6.66372">
        <ele>408</ele>
        <time>2019-06-11T19:28:44Z</time>
      </trkpt>
      <trkpt lat="46.50862" lon="6.66396">
        <ele>406</ele>
        <time>2019-06-11T19:28:48Z</time>
      </trkpt>
      <trkpt lat="46.50854" lon="6.66422">
        <ele>404</ele>
        <time>2019-06-11T19:28:51Z</time>
      </trkpt>
      <trkpt lat="46.5085" lon="6.66455">
        <ele>402</ele>
        <time>2019-06-11T19:28:55Z</time>
      </trkpt>
      <trkpt lat="46.50847" lon="6.66465">
        <ele>401</ele>
        <time>2019-06-11T19:28:57Z</time>
      </trkpt>
      <trkpt lat="46.50831" lon="6.66503">
        <ele>397</ele>
        <time>2019-06-11T19:29:02Z</time>
      </trkpt>
      <trkpt lat="46.50818" lon="6.66525">
        <ele>395</ele>
        <time>2019-06-11T19:29:06Z</time>
      </trkpt>
      <trkpt lat="46.50781" lon="6.66558">
        <ele>391</ele>
        <time>2019-06-11T19:29:13Z</time>
      </trkpt>
      <trkpt lat="46.50751" lon="6.66576">
        <ele>387</ele>
        <time>2019-06-11T19:29:19Z</time>
      </trkpt>
      <trkpt lat="46.50721" lon="6.66585">
        <ele>385</ele>
        <time>2019-06-11T19:29:24Z</time>
      </trkpt>
      <trkpt lat="46.50712" lon="6.66586">
        <ele>384</ele>
        <time>2019-06-11T19:29:26Z</time>
      </trkpt>
      <trkpt lat="46.50708" lon="6.66611">
        <ele>385</ele>
        <time>2019-06-11T19:29:29Z</time>
      </trkpt>
      <trkpt lat="46.507" lon="6.6664">
        <ele>385</ele>
        <time>2019-06-11T19:29:33Z</time>
      </trkpt>
      <trkpt lat="46.50646" lon="6.66805">
        <ele>385</ele>
        <time>2019-06-11T19:29:55Z</time>
      </trkpt>
      <trkpt lat="46.50641" lon="6.66826">
        <ele>385</ele>
        <time>2019-06-11T19:29:58Z</time>
      </trkpt>
      <trkpt lat="46.50634" lon="6.6686">
        <ele>384</ele>
        <time>2019-06-11T19:30:02Z</time>
      </trkpt>
      <trkpt lat="46.50622" lon="6.6695">
        <ele>383</ele>
        <time>2019-06-11T19:30:14Z</time>
      </trkpt>
      <trkpt lat="46.50608" lon="6.67007">
        <ele>384</ele>
        <time>2019-06-11T19:30:21Z</time>
      </trkpt>
      <trkpt lat="46.50589" lon="6.67052">
        <ele>384</ele>
        <time>2019-06-11T19:30:28Z</time>
      </trkpt>
      <trkpt lat="46.50536" lon="6.67166">
        <ele>384</ele>
        <time>2019-06-11T19:30:44Z</time>
      </trkpt>
      <trkpt lat="46.50524" lon="6.67197">
        <ele>384</ele>
        <time>2019-06-11T19:30:49Z</time>
      </trkpt>
      <trkpt lat="46.5051" lon="6.6725">
        <ele>384</ele>
        <time>2019-06-11T19:30:56Z</time>
      </trkpt>
      <trkpt lat="46.50502" lon="6.6729">
        <ele>383</ele>
        <time>2019-06-11T19:31:01Z</time>
      </trkpt>
      <trkpt lat="46.50479" lon="6.67473">
        <ele>381</ele>
        <time>2019-06-11T19:31:24Z</time>
      </trkpt>
      <trkpt lat="46.50453" lon="6.67587">
        <ele>380</ele>
        <time>2019-06-11T19:31:38Z</time>
      </trkpt>
      <trkpt lat="46.50435" lon="6.67673">
        <ele>381</ele>
        <time>2019-06-11T19:31:49Z</time>
      </trkpt>
      <trkpt lat="46.50423" lon="6.67737">
        <ele>380</ele>
        <time>2019-06-11T19:31:57Z</time>
      </trkpt>
      <trkpt lat="46.50411" lon="6.67817">
        <ele>377</ele>
        <time>2019-06-11T19:32:07Z</time>
      </trkpt>
      <trkpt lat="46.50407" lon="6.67823">
        <ele>376</ele>
        <time>2019-06-11T19:32:09Z</time>
      </trkpt>
      <trkpt lat="46.50395" lon="6.67896">
        <ele>376</ele>
        <time>2019-06-11T19:32:18Z</time>
      </trkpt>
      <trkpt lat="46.5039" lon="6.67961">
        <ele>376</ele>
        <time>2019-06-11T19:32:26Z</time>
      </trkpt>
      <trkpt lat="46.50394" lon="6.68091">
        <ele>377</ele>
        <time>2019-06-11T19:32:42Z</time>
      </trkpt>
      <trkpt lat="46.50386" lon="6.68124">
        <ele>378</ele>
        <time>2019-06-11T19:32:46Z</time>
      </trkpt>
      <trkpt lat="46.50344" lon="6.68235">
        <ele>377</ele>
        <time>2019-06-11T19:33:01Z</time>
      </trkpt>
      <trkpt lat="46.50302" lon="6.68325">
        <ele>377</ele>
        <time>2019-06-11T19:33:15Z</time>
      </trkpt>
      <trkpt lat="46.50294" lon="6.68338">
        <ele>377</ele>
        <time>2019-06-11T19:33:17Z</time>
      </trkpt>
      <trkpt lat="46.50222" lon="6.68276">
        <ele>375</ele>
        <time>2019-06-11T19:33:32Z</time>
      </trkpt>
      <trkpt lat="46.50219" lon="6.68275">
        <ele>375</ele>
        <time>2019-06-11T19:33:32Z</time>
      </trkpt>
      <trkpt lat="46.50213" lon="6.68281">
        <ele>375</ele>
        <time>2019-06-11T19:33:34Z</time>
      </trkpt>
      <trkpt lat="46.50201" lon="6.68315">
        <ele>375</ele>
        <time>2019-06-11T19:33:38Z</time>
      </trkpt>
      <trkpt lat="46.50192" lon="6.68351">
        <ele>375</ele>
        <time>2019-06-11T19:33:43Z</time>
      </trkpt>
      <trkpt lat="46.50186" lon="6.68382">
        <ele>376</ele>
        <time>2019-06-11T19:33:47Z</time>
      </trkpt>
      <trkpt lat="46.50193" lon="6.68456">
        <ele>377</ele>
        <time>2019-06-11T19:33:56Z</time>
      </trkpt>
      <trkpt lat="46.50188" lon="6.68467">
        <ele>377</ele>
        <time>2019-06-11T19:33:58Z</time>
      </trkpt>
      <trkpt lat="46.50163" lon="6.68787">
        <ele>376</ele>
        <time>2019-06-11T19:34:37Z</time>
      </trkpt>
      <trkpt lat="46.5016" lon="6.68813">
        <ele>376</ele>
        <time>2019-06-11T19:34:40Z</time>
      </trkpt>
      <trkpt lat="46.50154" lon="6.68834">
        <ele>375</ele>
        <time>2019-06-11T19:34:43Z</time>
      </trkpt>
      <trkpt lat="46.50164" lon="6.68844">
        <ele>376</ele>
        <time>2019-06-11T19:34:45Z</time>
      </trkpt>
      <trkpt lat="46.50146" lon="6.68899">
        <ele>376</ele>
        <time>2019-06-11T19:34:53Z</time>
      </trkpt>
      <trkpt lat="46.50147" lon="6.68916">
        <ele>377</ele>
        <time>2019-06-11T19:34:55Z</time>
      </trkpt>
      <trkpt lat="46.50151" lon="6.6893">
        <ele>377</ele>
        <time>2019-06-11T19:34:57Z</time>
      </trkpt>
      <trkpt lat="46.50155" lon="6.68937">
        <ele>378</ele>
        <time>2019-06-11T19:34:58Z</time>
      </trkpt>
      <trkpt lat="46.50157" lon="6.6895">
        <ele>378</ele>
        <time>2019-06-11T19:34:59Z</time>
      </trkpt>
      <trkpt lat="46.50155" lon="6.68957">
        <ele>379</ele>
        <time>2019-06-11T19:35:00Z</time>
      </trkpt>
      <trkpt lat="46.50152" lon="6.68958">
        <ele>379</ele>
        <time>2019-06-11T19:35:01Z</time>
      </trkpt>
      <trkpt lat="46.50146" lon="6.68966">
        <ele>379</ele>
        <time>2019-06-11T19:35:02Z</time>
      </trkpt>
      <trkpt lat="46.50148" lon="6.68978">
        <ele>379</ele>
        <time>2019-06-11T19:35:04Z</time>
      </trkpt>
      <trkpt lat="46.50131" lon="6.68999">
        <ele>380</ele>
        <time>2019-06-11T19:35:08Z</time>
      </trkpt>
      <trkpt lat="46.50109" lon="6.69033">
        <ele>381</ele>
        <time>2019-06-11T19:35:14Z</time>
      </trkpt>
      <trkpt lat="46.50094" lon="6.69063">
        <ele>382</ele>
        <time>2019-06-11T19:35:18Z</time>
      </trkpt>
      <trkpt lat="46.50082" lon="6.69103">
        <ele>382</ele>
        <time>2019-06-11T19:35:23Z</time>
      </trkpt>
      <trkpt lat="46.50059" lon="6.69205">
        <ele>379</ele>
        <time>2019-06-11T19:35:37Z</time>
      </trkpt>
      <trkpt lat="46.50048" lon="6.69381">
        <ele>377</ele>
        <time>2019-06-11T19:35:58Z</time>
      </trkpt>
      <trkpt lat="46.50033" lon="6.69486">
        <ele>379</ele>
        <time>2019-06-11T19:36:11Z</time>
      </trkpt>
      <trkpt lat="46.50023" lon="6.69541">
        <ele>380</ele>
        <time>2019-06-11T19:36:18Z</time>
      </trkpt>
      <trkpt lat="46.50015" lon="6.69574">
        <ele>380</ele>
        <time>2019-06-11T19:36:23Z</time>
      </trkpt>
      <trkpt lat="46.50008" lon="6.69597">
        <ele>380</ele>
        <time>2019-06-11T19:36:26Z</time>
      </trkpt>
      <trkpt lat="46.49909" lon="6.69861">
        <ele>380</ele>
        <time>2019-06-11T19:37:03Z</time>
      </trkpt>
      <trkpt lat="46.49895" lon="6.69901">
        <ele>380</ele>
        <time>2019-06-11T19:37:08Z</time>
      </trkpt>
      <trkpt lat="46.49868" lon="6.70021">
        <ele>379</ele>
        <time>2019-06-11T19:37:24Z</time>
      </trkpt>
      <trkpt lat="46.49861" lon="6.70041">
        <ele>380</ele>
        <time>2019-06-11T19:37:26Z</time>
      </trkpt>
      <trkpt lat="46.49846" lon="6.70079">
        <ele>381</ele>
        <time>2019-06-11T19:37:32Z</time>
      </trkpt>
      <trkpt lat="46.49823" lon="6.70124">
        <ele>382</ele>
        <time>2019-06-11T19:37:39Z</time>
      </trkpt>
      <trkpt lat="46.49785" lon="6.70178">
        <ele>382</ele>
        <time>2019-06-11T19:37:48Z</time>
      </trkpt>
      <trkpt lat="46.49768" lon="6.70211">
        <ele>383</ele>
        <time>2019-06-11T19:37:53Z</time>
      </trkpt>
      <trkpt lat="46.49707" lon="6.70368">
        <ele>386</ele>
        <time>2019-06-11T19:38:15Z</time>
      </trkpt>
      <trkpt lat="46.4967" lon="6.70438">
        <ele>386</ele>
        <time>2019-06-11T19:38:26Z</time>
      </trkpt>
      <trkpt lat="46.49632" lon="6.70504">
        <ele>387</ele>
        <time>2019-06-11T19:38:36Z</time>
      </trkpt>
      <trkpt lat="46.49594" lon="6.70579">
        <ele>382</ele>
        <time>2019-06-11T19:38:48Z</time>
      </trkpt>
      <trkpt lat="46.49506" lon="6.70795">
        <ele>385</ele>
        <time>2019-06-11T19:39:19Z</time>
      </trkpt>
      <trkpt lat="46.49466" lon="6.70859">
        <ele>385</ele>
        <time>2019-06-11T19:39:29Z</time>
      </trkpt>
      <trkpt lat="46.4916" lon="6.713">
        <ele>388</ele>
        <time>2019-06-11T19:40:46Z</time>
      </trkpt>
      <trkpt lat="46.49145" lon="6.71327">
        <ele>388</ele>
        <time>2019-06-11T19:40:50Z</time>
      </trkpt>
      <trkpt lat="46.4908" lon="6.71471">
        <ele>382</ele>
        <time>2019-06-11T19:41:11Z</time>
      </trkpt>
      <trkpt lat="46.49017" lon="6.7158">
        <ele>379</ele>
        <time>2019-06-11T19:41:29Z</time>
      </trkpt>
      <trkpt lat="46.48898" lon="6.71819">
        <ele>383</ele>
        <time>2019-06-11T19:42:05Z</time>
      </trkpt>
      <trkpt lat="46.4885" lon="6.71903">
        <ele>384</ele>
        <time>2019-06-11T19:42:18Z</time>
      </trkpt>
      <trkpt lat="46.48813" lon="6.71962">
        <ele>383</ele>
        <time>2019-06-11T19:42:28Z</time>
      </trkpt>
      <trkpt lat="46.48796" lon="6.71992">
        <ele>383</ele>
        <time>2019-06-11T19:42:33Z</time>
      </trkpt>
      <trkpt lat="46.4875" lon="6.7209">
        <ele>383</ele>
        <time>2019-06-11T19:42:47Z</time>
      </trkpt>
      <trkpt lat="46.4874" lon="6.72116">
        <ele>383</ele>
        <time>2019-06-11T19:42:51Z</time>
      </trkpt>
      <trkpt lat="46.48726" lon="6.72179">
        <ele>385</ele>
        <time>2019-06-11T19:42:59Z</time>
      </trkpt>
      <trkpt lat="46.48725" lon="6.7221">
        <ele>385</ele>
        <time>2019-06-11T19:43:03Z</time>
      </trkpt>
      <trkpt lat="46.48726" lon="6.72254">
        <ele>385</ele>
        <time>2019-06-11T19:43:08Z</time>
      </trkpt>
      <trkpt lat="46.48744" lon="6.72444">
        <ele>385</ele>
        <time>2019-06-11T19:43:32Z</time>
      </trkpt>
      <trkpt lat="46.48753" lon="6.72501">
        <ele>384</ele>
        <time>2019-06-11T19:43:39Z</time>
      </trkpt>
      <trkpt lat="46.48765" lon="6.72558">
        <ele>385</ele>
        <time>2019-06-11T19:43:46Z</time>
      </trkpt>
      <trkpt lat="46.48788" lon="6.72638">
        <ele>386</ele>
        <time>2019-06-11T19:43:57Z</time>
      </trkpt>
      <trkpt lat="46.48814" lon="6.72702">
        <ele>388</ele>
        <time>2019-06-11T19:44:06Z</time>
      </trkpt>
      <trkpt lat="46.48869" lon="6.72812">
        <ele>389</ele>
        <time>2019-06-11T19:44:23Z</time>
      </trkpt>
      <trkpt lat="46.48911" lon="6.72909">
        <ele>392</ele>
        <time>2019-06-11T19:44:37Z</time>
      </trkpt>
      <trkpt lat="46.48988" lon="6.73118">
        <ele>393</ele>
        <time>2019-06-11T19:45:06Z</time>
      </trkpt>
      <trkpt lat="46.49077" lon="6.73393">
        <ele>392</ele>
        <time>2019-06-11T19:45:43Z</time>
      </trkpt>
      <trkpt lat="46.4909" lon="6.73443">
        <ele>392</ele>
        <time>2019-06-11T19:45:49Z</time>
      </trkpt>
      <trkpt lat="46.49094" lon="6.73466">
        <ele>391</ele>
        <time>2019-06-11T19:45:52Z</time>
      </trkpt>
      <trkpt lat="46.49098" lon="6.73496">
        <ele>390</ele>
        <time>2019-06-11T19:45:56Z</time>
      </trkpt>
      <trkpt lat="46.49101" lon="6.73531">
        <ele>390</ele>
        <time>2019-06-11T19:46:00Z</time>
      </trkpt>
      <trkpt lat="46.49102" lon="6.73567">
        <ele>390</ele>
        <time>2019-06-11T19:46:05Z</time>
      </trkpt>
      <trkpt lat="46.49101" lon="6.73598">
        <ele>389</ele>
        <time>2019-06-11T19:46:09Z</time>
      </trkpt>
      <trkpt lat="46.49096" lon="6.73641">
        <ele>387</ele>
        <time>2019-06-11T19:46:14Z</time>
      </trkpt>
      <trkpt lat="46.49088" lon="6.73685">
        <ele>386</ele>
        <time>2019-06-11T19:46:19Z</time>
      </trkpt>
      <trkpt lat="46.49076" lon="6.7373">
        <ele>386</ele>
        <time>2019-06-11T19:46:25Z</time>
      </trkpt>
      <trkpt lat="46.49022" lon="6.73862">
        <ele>386</ele>
        <time>2019-06-11T19:46:44Z</time>
      </trkpt>
      <trkpt lat="46.49009" lon="6.73897">
        <ele>386</ele>
        <time>2019-06-11T19:46:49Z</time>
      </trkpt>
      <trkpt lat="46.48994" lon="6.73954">
        <ele>387</ele>
        <time>2019-06-11T19:46:57Z</time>
      </trkpt>
      <trkpt lat="46.48989" lon="6.73988">
        <ele>388</ele>
        <time>2019-06-11T19:47:01Z</time>
      </trkpt>
      <trkpt lat="46.48984" lon="6.74036">
        <ele>389</ele>
        <time>2019-06-11T19:47:07Z</time>
      </trkpt>
      <trkpt lat="46.48982" lon="6.74119">
        <ele>390</ele>
        <time>2019-06-11T19:47:17Z</time>
      </trkpt>
      <trkpt lat="46.48984" lon="6.74318">
        <ele>389</ele>
        <time>2019-06-11T19:47:41Z</time>
      </trkpt>
      <trkpt lat="46.48982" lon="6.74391">
        <ele>390</ele>
        <time>2019-06-11T19:47:50Z</time>
      </trkpt>
      <trkpt lat="46.48978" lon="6.74431">
        <ele>391</ele>
        <time>2019-06-11T19:47:55Z</time>
      </trkpt>
      <trkpt lat="46.48971" lon="6.74466">
        <ele>393</ele>
        <time>2019-06-11T19:48:00Z</time>
      </trkpt>
      <trkpt lat="46.48958" lon="6.74511">
        <ele>393</ele>
        <time>2019-06-11T19:48:06Z</time>
      </trkpt>
      <trkpt lat="46.48946" lon="6.74543">
        <ele>392</ele>
        <time>2019-06-11T19:48:10Z</time>
      </trkpt>
      <trkpt lat="46.48901" lon="6.74634">
        <ele>390</ele>
        <time>2019-06-11T19:48:24Z</time>
      </trkpt>
      <trkpt lat="46.48876" lon="6.74692">
        <ele>390</ele>
        <time>2019-06-11T19:48:32Z</time>
      </trkpt>
      <trkpt lat="46.48817" lon="6.74865">
        <ele>393</ele>
        <time>2019-06-11T19:48:56Z</time>
      </trkpt>
      <trkpt lat="46.48809" lon="6.74878">
        <ele>393</ele>
        <time>2019-06-11T19:48:58Z</time>
      </trkpt>
      <trkpt lat="46.48756" lon="6.74944">
        <ele>391</ele>
        <time>2019-06-11T19:49:10Z</time>
      </trkpt>
      <trkpt lat="46.4874" lon="6.74969">
        <ele>390</ele>
        <time>2019-06-11T19:49:15Z</time>
      </trkpt>
      <trkpt lat="46.48732" lon="6.74988">
        <ele>391</ele>
        <time>2019-06-11T19:49:17Z</time>
      </trkpt>
      <trkpt lat="46.48644" lon="6.75227">
        <ele>387</ele>
        <time>2019-06-11T19:49:51Z</time>
      </trkpt>
      <trkpt lat="46.48613" lon="6.75288">
        <ele>388</ele>
        <time>2019-06-11T19:50:00Z</time>
      </trkpt>
      <trkpt lat="46.48586" lon="6.75328">
        <ele>387</ele>
        <time>2019-06-11T19:50:07Z</time>
      </trkpt>
      <trkpt lat="46.48553" lon="6.75366">
        <ele>388</ele>
        <time>2019-06-11T19:50:14Z</time>
      </trkpt>
      <trkpt lat="46.4849" lon="6.75431">
        <ele>388</ele>
        <time>2019-06-11T19:50:28Z</time>
      </trkpt>
      <trkpt lat="46.48459" lon="6.75469">
        <ele>389</ele>
        <time>2019-06-11T19:50:35Z</time>
      </trkpt>
      <trkpt lat="46.48441" lon="6.75501">
        <ele>388</ele>
        <time>2019-06-11T19:50:40Z</time>
      </trkpt>
      <trkpt lat="46.48401" lon="6.75604">
        <ele>391</ele>
        <time>2019-06-11T19:50:55Z</time>
      </trkpt>
      <trkpt lat="46.48379" lon="6.75648">
        <ele>392</ele>
        <time>2019-06-11T19:51:01Z</time>
      </trkpt>
      <trkpt lat="46.4836" lon="6.75679">
        <ele>391</ele>
        <time>2019-06-11T19:51:06Z</time>
      </trkpt>
      <trkpt lat="46.48321" lon="6.75736">
        <ele>391</ele>
        <time>2019-06-11T19:51:16Z</time>
      </trkpt>
      <trkpt lat="46.48287" lon="6.75776">
        <ele>392</ele>
        <time>2019-06-11T19:51:24Z</time>
      </trkpt>
      <trkpt lat="46.48204" lon="6.75849">
        <ele>388</ele>
        <time>2019-06-11T19:51:41Z</time>
      </trkpt>
      <trkpt lat="46.48181" lon="6.75872">
        <ele>387</ele>
        <time>2019-06-11T19:51:46Z</time>
      </trkpt>
      <trkpt lat="46.48164" lon="6.75892">
        <ele>387</ele>
        <time>2019-06-11T19:51:50Z</time>
      </trkpt>
      <trkpt lat="46.48128" lon="6.75938">
        <ele>388</ele>
        <time>2019-06-11T19:51:59Z</time>
      </trkpt>
      <trkpt lat="46.481" lon="6.75985">
        <ele>387</ele>
        <time>2019-06-11T19:52:06Z</time>
      </trkpt>
      <trkpt lat="46.48074" lon="6.76034">
        <ele>388</ele>
        <time>2019-06-11T19:52:14Z</time>
      </trkpt>
      <trkpt lat="46.48024" lon="6.76139">
        <ele>391</ele>
        <time>2019-06-11T19:52:30Z</time>
      </trkpt>
      <trkpt lat="46.4798" lon="6.76241">
        <ele>390</ele>
        <time>2019-06-11T19:52:44Z</time>
      </trkpt>
      <trkpt lat="46.47904" lon="6.76424">
        <ele>390</ele>
        <time>2019-06-11T19:53:10Z</time>
      </trkpt>
      <trkpt lat="46.4784" lon="6.7661">
        <ele>389</ele>
        <time>2019-06-11T19:53:36Z</time>
      </trkpt>
      <trkpt lat="46.47781" lon="6.76758">
        <ele>389</ele>
        <time>2019-06-11T19:53:57Z</time>
      </trkpt>
      <trkpt lat="46.47754" lon="6.76834">
        <ele>385</ele>
        <time>2019-06-11T19:54:07Z</time>
      </trkpt>
      <trkpt lat="46.47709" lon="6.76998">
        <ele>392</ele>
        <time>2019-06-11T19:54:29Z</time>
      </trkpt>
      <trkpt lat="46.47674" lon="6.77106">
        <ele>387</ele>
        <time>2019-06-11T19:54:44Z</time>
      </trkpt>
      <trkpt lat="46.47606" lon="6.77306">
        <ele>392</ele>
        <time>2019-06-11T19:55:11Z</time>
      </trkpt>
      <trkpt lat="46.47573" lon="6.77397">
        <ele>391</ele>
        <time>2019-06-11T19:55:24Z</time>
      </trkpt>
      <trkpt lat="46.47539" lon="6.77486">
        <ele>392</ele>
        <time>2019-06-11T19:55:36Z</time>
      </trkpt>
      <trkpt lat="46.47499" lon="6.776">
        <ele>385</ele>
        <time>2019-06-11T19:55:52Z</time>
      </trkpt>
      <trkpt lat="46.4749" lon="6.77633">
        <ele>387</ele>
        <time>2019-06-11T19:55:56Z</time>
      </trkpt>
      <trkpt lat="46.47485" lon="6.77653">
        <ele>388</ele>
        <time>2019-06-11T19:55:59Z</time>
      </trkpt>
      <trkpt lat="46.47483" lon="6.77674">
        <ele>389</ele>
        <time>2019-06-11T19:56:01Z</time>
      </trkpt>
      <trkpt lat="46.4748" lon="6.77768">
        <ele>392</ele>
        <time>2019-06-11T19:56:13Z</time>
      </trkpt>
      <trkpt lat="46.47475" lon="6.77823">
        <ele>395</ele>
        <time>2019-06-11T19:56:20Z</time>
      </trkpt>
      <trkpt lat="46.47468" lon="6.77857">
        <ele>395</ele>
        <time>2019-06-11T19:56:24Z</time>
      </trkpt>
      <trkpt lat="46.47456" lon="6.77894">
        <ele>393</ele>
        <time>2019-06-11T19:56:29Z</time>
      </trkpt>
      <trkpt lat="46.47432" lon="6.77956">
        <ele>386</ele>
        <time>2019-06-11T19:56:38Z</time>
      </trkpt>
      <trkpt lat="46.47425" lon="6.77982">
        <ele>383</ele>
        <time>2019-06-11T19:56:41Z</time>
      </trkpt>
      <trkpt lat="46.47422" lon="6.78014">
        <ele>383</ele>
        <time>2019-06-11T19:56:45Z</time>
      </trkpt>
      <trkpt lat="46.47422" lon="6.78033">
        <ele>384</ele>
        <time>2019-06-11T19:56:47Z</time>
      </trkpt>
      <trkpt lat="46.47434" lon="6.78136">
        <ele>391</ele>
        <time>2019-06-11T19:57:00Z</time>
      </trkpt>
      <trkpt lat="46.47434" lon="6.78155">
        <ele>391</ele>
        <time>2019-06-11T19:57:03Z</time>
      </trkpt>
      <trkpt lat="46.4743" lon="6.78181">
        <ele>390</ele>
        <time>2019-06-11T19:57:06Z</time>
      </trkpt>
      <trkpt lat="46.47415" lon="6.78242">
        <ele>386</ele>
        <time>2019-06-11T19:57:14Z</time>
      </trkpt>
      <trkpt lat="46.47407" lon="6.78301">
        <ele>384</ele>
        <time>2019-06-11T19:57:21Z</time>
      </trkpt>
      <trkpt lat="46.4741" lon="6.78339">
        <ele>383</ele>
        <time>2019-06-11T19:57:26Z</time>
      </trkpt>
      <trkpt lat="46.47447" lon="6.78506">
        <ele>388</ele>
        <time>2019-06-11T19:57:47Z</time>
      </trkpt>
      <trkpt lat="46.4745" lon="6.78529">
        <ele>389</ele>
        <time>2019-06-11T19:57:50Z</time>
      </trkpt>
      <trkpt lat="46.47448" lon="6.78611">
        <ele>387</ele>
        <time>2019-06-11T19:58:00Z</time>
      </trkpt>
      <trkpt lat="46.47463" lon="6.78722">
        <ele>385</ele>
        <time>2019-06-11T19:58:14Z</time>
      </trkpt>
      <trkpt lat="46.47471" lon="6.78844">
        <ele>384</ele>
        <time>2019-06-11T19:58:29Z</time>
      </trkpt>
      <trkpt lat="46.4747" lon="6.78891">
        <ele>385</ele>
        <time>2019-06-11T19:58:35Z</time>
      </trkpt>
      <trkpt lat="46.47466" lon="6.78937">
        <ele>386</ele>
        <time>2019-06-11T19:58:41Z</time>
      </trkpt>
      <trkpt lat="46.47459" lon="6.78974">
        <ele>386</ele>
        <time>2019-06-11T19:58:45Z</time>
      </trkpt>
      <trkpt lat="46.47451" lon="6.79006">
        <ele>386</ele>
        <time>2019-06-11T19:58:49Z</time>
      </trkpt>
      <trkpt lat="46.47423" lon="6.79102">
        <ele>384</ele>
        <time>2019-06-11T19:59:02Z</time>
      </trkpt>
      <trkpt lat="46.47367" lon="6.79374">
        <ele>393</ele>
        <time>2019-06-11T19:59:37Z</time>
      </trkpt>
      <trkpt lat="46.47351" lon="6.79421">
        <ele>390</ele>
        <time>2019-06-11T19:59:43Z</time>
      </trkpt>
      <trkpt lat="46.47331" lon="6.79468">
        <ele>388</ele>
        <time>2019-06-11T19:59:50Z</time>
      </trkpt>
      <trkpt lat="46.47299" lon="6.79533">
        <ele>389</ele>
        <time>2019-06-11T20:00:00Z</time>
      </trkpt>
      <trkpt lat="46.47288" lon="6.79563">
        <ele>390</ele>
        <time>2019-06-11T20:00:04Z</time>
      </trkpt>
      <trkpt lat="46.47282" lon="6.79592">
        <ele>390</ele>
        <time>2019-06-11T20:00:08Z</time>
      </trkpt>
      <trkpt lat="46.47275" lon="6.7963">
        <ele>387</ele>
        <time>2019-06-11T20:00:13Z</time>
      </trkpt>
      <trkpt lat="46.4727" lon="6.79777">
        <ele>387</ele>
        <time>2019-06-11T20:00:31Z</time>
      </trkpt>
      <trkpt lat="46.47268" lon="6.79859">
        <ele>391</ele>
        <time>2019-06-11T20:00:41Z</time>
      </trkpt>
      <trkpt lat="46.47266" lon="6.79883">
        <ele>392</ele>
        <time>2019-06-11T20:00:44Z</time>
      </trkpt>
      <trkpt lat="46.47262" lon="6.79905">
        <ele>392</ele>
        <time>2019-06-11T20:00:46Z</time>
      </trkpt>
      <trkpt lat="46.47244" lon="6.79961">
        <ele>391</ele>
        <time>2019-06-11T20:00:54Z</time>
      </trkpt>
      <trkpt lat="46.47207" lon="6.80054">
        <ele>387</ele>
        <time>2019-06-11T20:01:07Z</time>
      </trkpt>
      <trkpt lat="46.47186" lon="6.80148">
        <ele>385</ele>
        <time>2019-06-11T20:01:19Z</time>
      </trkpt>
      <trkpt lat="46.47175" lon="6.80297">
        <ele>384</ele>
        <time>2019-06-11T20:01:38Z</time>
      </trkpt>
      <trkpt lat="46.47159" lon="6.80458">
        <ele>382</ele>
        <time>2019-06-11T20:01:58Z</time>
      </trkpt>
      <trkpt lat="46.47133" lon="6.80596">
        <ele>386</ele>
        <time>2019-06-11T20:02:15Z</time>
      </trkpt>
      <trkpt lat="46.47118" lon="6.80663">
        <ele>389</ele>
        <time>2019-06-11T20:02:24Z</time>
      </trkpt>
      <trkpt lat="46.47103" lon="6.80743">
        <ele>388</ele>
        <time>2019-06-11T20:02:34Z</time>
      </trkpt>
      <trkpt lat="46.4709" lon="6.80858">
        <ele>386</ele>
        <time>2019-06-11T20:02:48Z</time>
      </trkpt>
      <trkpt lat="46.47072" lon="6.81305">
        <ele>388</ele>
        <time>2019-06-11T20:03:43Z</time>
      </trkpt>
      <trkpt lat="46.47059" lon="6.81504">
        <ele>390</ele>
        <time>2019-06-11T20:04:08Z</time>
      </trkpt>
      <trkpt lat="46.47044" lon="6.81774">
        <ele>390</ele>
        <time>2019-06-11T20:04:41Z</time>
      </trkpt>
      <trkpt lat="46.47037" lon="6.81942">
        <ele>390</ele>
        <time>2019-06-11T20:05:01Z</time>
      </trkpt>
      <trkpt lat="46.47032" lon="6.82028">
        <ele>390</ele>
        <time>2019-06-11T20:05:12Z</time>
      </trkpt>
      <trkpt lat="46.47025" lon="6.82084">
        <ele>390</ele>
        <time>2019-06-11T20:05:19Z</time>
      </trkpt>
      <trkpt lat="46.47008" lon="6.82151">
        <ele>391</ele>
        <time>2019-06-11T20:05:28Z</time>
      </trkpt>
      <trkpt lat="46.4699" lon="6.82197">
        <ele>393</ele>
        <time>2019-06-11T20:05:34Z</time>
      </trkpt>
      <trkpt lat="46.46979" lon="6.82219">
        <ele>393</ele>
        <time>2019-06-11T20:05:38Z</time>
      </trkpt>
      <trkpt lat="46.46966" lon="6.82238">
        <ele>393</ele>
        <time>2019-06-11T20:05:41Z</time>
      </trkpt>
      <trkpt lat="46.46951" lon="6.82254">
        <ele>392</ele>
        <time>2019-06-11T20:05:44Z</time>
      </trkpt>
      <trkpt lat="46.46928" lon="6.82271">
        <ele>390</ele>
        <time>2019-06-11T20:05:49Z</time>
      </trkpt>
      <trkpt lat="46.46892" lon="6.82293">
        <ele>389</ele>
        <time>2019-06-11T20:05:56Z</time>
      </trkpt>
      <trkpt lat="46.46875" lon="6.8231">
        <ele>389</ele>
        <time>2019-06-11T20:05:59Z</time>
      </trkpt>
      <trkpt lat="46.46854" lon="6.82344">
        <ele>389</ele>
        <time>2019-06-11T20:06:05Z</time>
      </trkpt>
      <trkpt lat="46.46847" lon="6.82367">
        <ele>388</ele>
        <time>2019-06-11T20:06:08Z</time>
      </trkpt>
      <trkpt lat="46.46841" lon="6.82391">
        <ele>387</ele>
        <time>2019-06-11T20:06:11Z</time>
      </trkpt>
      <trkpt lat="46.46839" lon="6.82414">
        <ele>387</ele>
        <time>2019-06-11T20:06:14Z</time>
      </trkpt>
      <trkpt lat="46.46839" lon="6.82452">
        <ele>386</ele>
        <time>2019-06-11T20:06:19Z</time>
      </trkpt>
      <trkpt lat="46.4685" lon="6.82525">
        <ele>386</ele>
        <time>2019-06-11T20:06:28Z</time>
      </trkpt>
      <trkpt lat="46.46854" lon="6.82568">
        <ele>386</ele>
        <time>2019-06-11T20:06:33Z</time>
      </trkpt>
      <trkpt lat="46.46864" lon="6.82734">
        <ele>385</ele>
        <time>2019-06-11T20:06:54Z</time>
      </trkpt>
      <trkpt lat="46.46866" lon="6.82813">
        <ele>383</ele>
        <time>2019-06-11T20:07:03Z</time>
      </trkpt>
      <trkpt lat="46.46863" lon="6.82859">
        <ele>382</ele>
        <time>2019-06-11T20:07:09Z</time>
      </trkpt>
      <trkpt lat="46.46859" lon="6.82899">
        <ele>380</ele>
        <time>2019-06-11T20:07:14Z</time>
      </trkpt>
      <trkpt lat="46.46842" lon="6.82995">
        <ele>378</ele>
        <time>2019-06-11T20:07:26Z</time>
      </trkpt>
      <trkpt lat="46.46839" lon="6.83034">
        <ele>378</ele>
        <time>2019-06-11T20:07:31Z</time>
      </trkpt>
      <trkpt lat="46.46834" lon="6.83345">
        <ele>380</ele>
        <time>2019-06-11T20:08:09Z</time>
      </trkpt>
      <trkpt lat="46.4683" lon="6.83377">
        <ele>381</ele>
        <time>2019-06-11T20:08:13Z</time>
      </trkpt>
      <trkpt lat="46.46825" lon="6.834">
        <ele>382</ele>
        <time>2019-06-11T20:08:16Z</time>
      </trkpt>
      <trkpt lat="46.46812" lon="6.83433">
        <ele>383</ele>
        <time>2019-06-11T20:08:21Z</time>
      </trkpt>
      <trkpt lat="46.46802" lon="6.8345">
        <ele>384</ele>
        <time>2019-06-11T20:08:23Z</time>
      </trkpt>
      <trkpt lat="46.46748" lon="6.83528">
        <ele>385</ele>
        <time>2019-06-11T20:08:37Z</time>
      </trkpt>
      <trkpt lat="46.46711" lon="6.83563">
        <ele>386</ele>
        <time>2019-06-11T20:08:45Z</time>
      </trkpt>
      <trkpt lat="46.46688" lon="6.83579">
        <ele>386</ele>
        <time>2019-06-11T20:08:49Z</time>
      </trkpt>
      <trkpt lat="46.46685" lon="6.83584">
        <ele>386</ele>
        <time>2019-06-11T20:08:50Z</time>
      </trkpt>
      <trkpt lat="46.46645" lon="6.83614">
        <ele>386</ele>
        <time>2019-06-11T20:08:58Z</time>
      </trkpt>
      <trkpt lat="46.46627" lon="6.83621">
        <ele>386</ele>
        <time>2019-06-11T20:09:01Z</time>
      </trkpt>
      <trkpt lat="46.46464" lon="6.83702">
        <ele>383</ele>
        <time>2019-06-11T20:09:32Z</time>
      </trkpt>
      <trkpt lat="46.46237" lon="6.8381">
        <ele>380</ele>
        <time>2019-06-11T20:10:15Z</time>
      </trkpt>
      <trkpt lat="46.46202" lon="6.83827">
        <ele>379</ele>
        <time>2019-06-11T20:10:21Z</time>
      </trkpt>
      <trkpt lat="46.46192" lon="6.83835">
        <ele>379</ele>
        <time>2019-06-11T20:10:23Z</time>
      </trkpt>
      <trkpt lat="46.46162" lon="6.83869">
        <ele>379</ele>
        <time>2019-06-11T20:10:30Z</time>
      </trkpt>
      <trkpt lat="46.46121" lon="6.83927">
        <ele>380</ele>
        <time>2019-06-11T20:10:40Z</time>
      </trkpt>
      <trkpt lat="46.46077" lon="6.84016">
        <ele>381</ele>
        <time>2019-06-11T20:10:53Z</time>
      </trkpt>
      <trkpt lat="46.46042" lon="6.8408">
        <ele>382</ele>
        <time>2019-06-11T20:11:04Z</time>
      </trkpt>
      <trkpt lat="46.46012" lon="6.84155">
        <ele>381</ele>
        <time>2019-06-11T20:11:14Z</time>
      </trkpt>
      <trkpt lat="46.46009" lon="6.84168">
        <ele>381</ele>
        <time>2019-06-11T20:11:16Z</time>
      </trkpt>
      <trkpt lat="46.45984" lon="6.84156">
        <ele>379</ele>
        <time>2019-06-11T20:11:21Z</time>
      </trkpt>
      <trkpt lat="46.4598" lon="6.84177">
        <ele>379</ele>
        <time>2019-06-11T20:11:23Z</time>
      </trkpt>
      <trkpt lat="46.45939" lon="6.84161">
        <ele>377</ele>
        <time>2019-06-11T20:11:31Z</time>
      </trkpt>
      <trkpt lat="46.45923" lon="6.84244">
        <ele>378</ele>
        <time>2019-06-11T20:11:41Z</time>
      </trkpt>
      <trkpt lat="46.45908" lon="6.8424">
        <ele>377</ele>
        <time>2019-06-11T20:11:44Z</time>
      </trkpt>
      <trkpt lat="46.45899" lon="6.84243">
        <ele>377</ele>
        <time>2019-06-11T20:11:46Z</time>
      </trkpt>
      <trkpt lat="46.45876" lon="6.84254">
        <ele>376</ele>
        <time>2019-06-11T20:11:50Z</time>
      </trkpt>
      <trkpt lat="46.45863" lon="6.84268">
        <ele>376</ele>
        <time>2019-06-11T20:11:53Z</time>
      </trkpt>
      <trkpt lat="46.45861" lon="6.84273">
        <ele>377</ele>
        <time>2019-06-11T20:11:54Z</time>
      </trkpt>
      <trkpt lat="46.45834" lon="6.8446">
        <ele>382</ele>
        <time>2019-06-11T20:12:17Z</time>
      </trkpt>
      <trkpt lat="46.45829" lon="6.84474">
        <ele>381</ele>
        <time>2019-06-11T20:12:19Z</time>
      </trkpt>
      <trkpt lat="46.45818" lon="6.84552">
        <ele>380</ele>
        <time>2019-06-11T20:12:29Z</time>
      </trkpt>
      <trkpt lat="46.45818" lon="6.84576">
        <ele>379</ele>
        <time>2019-06-11T20:12:32Z</time>
      </trkpt>
      <trkpt lat="46.45816" lon="6.84591">
        <ele>379</ele>
        <time>2019-06-11T20:12:33Z</time>
      </trkpt>
      <trkpt lat="46.45891" lon="6.84615">
        <ele>383</ele>
        <time>2019-06-11T20:12:47Z</time>
      </trkpt>
      <trkpt lat="46.45929" lon="6.84635">
        <ele>384</ele>
        <time>2019-06-11T20:12:54Z</time>
      </trkpt>
      <trkpt lat="46.4592" lon="6.84654">
        <ele>383</ele>
        <time>2019-06-11T20:12:57Z</time>
      </trkpt>
      <trkpt lat="46.45903" lon="6.84704">
        <ele>382</ele>
        <time>2019-06-11T20:13:04Z</time>
      </trkpt>
      <trkpt lat="46.45896" lon="6.84722">
        <ele>382</ele>
        <time>2019-06-11T20:13:07Z</time>
      </trkpt>
      <trkpt lat="46.45878" lon="6.84749">
        <ele>382</ele>
        <time>2019-06-11T20:13:11Z</time>
      </trkpt>
      <trkpt lat="46.45872" lon="6.84765">
        <ele>382</ele>
        <time>2019-06-11T20:13:13Z</time>
      </trkpt>
      <trkpt lat="46.45853" lon="6.84829">
        <ele>382</ele>
        <time>2019-06-11T20:13:22Z</time>
      </trkpt>
      <trkpt lat="46.45819" lon="6.84988">
        <ele>382</ele>
        <time>2019-06-11T20:13:42Z</time>
      </trkpt>
      <trkpt lat="46.45813" lon="6.85027">
        <ele>381</ele>
        <time>2019-06-11T20:13:47Z</time>
      </trkpt>
      <trkpt lat="46.45812" lon="6.8507">
        <ele>380</ele>
        <time>2019-06-11T20:13:52Z</time>
      </trkpt>
      <trkpt lat="46.45809" lon="6.85097">
        <ele>379</ele>
        <time>2019-06-11T20:13:56Z</time>
      </trkpt>
      <trkpt lat="46.45783" lon="6.85216">
        <ele>379</ele>
        <time>2019-06-11T20:14:11Z</time>
      </trkpt>
      <trkpt lat="46.4576" lon="6.85247">
        <ele>379</ele>
        <time>2019-06-11T20:14:17Z</time>
      </trkpt>
      <trkpt lat="46.45735" lon="6.85252">
        <ele>378</ele>
        <time>2019-06-11T20:14:21Z</time>
      </trkpt>
      <trkpt lat="46.45719" lon="6.85265">
        <ele>378</ele>
        <time>2019-06-11T20:14:24Z</time>
      </trkpt>
      <trkpt lat="46.4571" lon="6.85281">
        <ele>378</ele>
        <time>2019-06-11T20:14:27Z</time>
      </trkpt>
      <trkpt lat="46.45694" lon="6.85313">
        <ele>378</ele>
        <time>2019-06-11T20:14:32Z</time>
      </trkpt>
      <trkpt lat="46.45689" lon="6.85321">
        <ele>378</ele>
        <time>2019-06-11T20:14:33Z</time>
      </trkpt>
      <trkpt lat="46.45627" lon="6.85386">
        <ele>379</ele>
        <time>2019-06-11T20:14:47Z</time>
      </trkpt>
      <trkpt lat="46.45613" lon="6.85409">
        <ele>380</ele>
        <time>2019-06-11T20:14:51Z</time>
      </trkpt>
      <trkpt lat="46.45478" lon="6.85533">
        <ele>383</ele>
        <time>2019-06-11T20:15:19Z</time>
      </trkpt>
      <trkpt lat="46.45333" lon="6.85653">
        <ele>389</ele>
        <time>2019-06-11T20:15:49Z</time>
      </trkpt>
      <trkpt lat="46.45299" lon="6.85684">
        <ele>387</ele>
        <time>2019-06-11T20:15:56Z</time>
      </trkpt>
      <trkpt lat="46.45274" lon="6.85716">
        <ele>387</ele>
        <time>2019-06-11T20:16:02Z</time>
      </trkpt>
      <trkpt lat="46.45227" lon="6.85784">
        <ele>387</ele>
        <time>2019-06-11T20:16:14Z</time>
      </trkpt>
      <trkpt lat="46.45189" lon="6.85827">
        <ele>389</ele>
        <time>2019-06-11T20:16:22Z</time>
      </trkpt>
      <trkpt lat="46.4516" lon="6.85855">
        <ele>391</ele>
        <time>2019-06-11T20:16:28Z</time>
      </trkpt>
      <trkpt lat="46.45131" lon="6.85879">
        <ele>391</ele>
        <time>2019-06-11T20:16:34Z</time>
      </trkpt>
      <trkpt lat="46.45036" lon="6.85938">
        <ele>389</ele>
        <time>2019-06-11T20:16:53Z</time>
      </trkpt>
      <trkpt lat="46.45" lon="6.85973">
        <ele>387</ele>
        <time>2019-06-11T20:17:00Z</time>
      </trkpt>
      <trkpt lat="46.44982" lon="6.85998">
        <ele>387</ele>
        <time>2019-06-11T20:17:05Z</time>
      </trkpt>
      <trkpt lat="46.44968" lon="6.86025">
        <ele>388</ele>
        <time>2019-06-11T20:17:09Z</time>
      </trkpt>
      <trkpt lat="46.44956" lon="6.86053">
        <ele>389</ele>
        <time>2019-06-11T20:17:13Z</time>
      </trkpt>
      <trkpt lat="46.44941" lon="6.86097">
        <ele>390</ele>
        <time>2019-06-11T20:17:19Z</time>
      </trkpt>
      <trkpt lat="46.4493" lon="6.86142">
        <ele>390</ele>
        <time>2019-06-11T20:17:25Z</time>
      </trkpt>
      <trkpt lat="46.44926" lon="6.86175">
        <ele>389</ele>
        <time>2019-06-11T20:17:29Z</time>
      </trkpt>
      <trkpt lat="46.44923" lon="6.86208">
        <ele>388</ele>
        <time>2019-06-11T20:17:33Z</time>
      </trkpt>
      <trkpt lat="46.44913" lon="6.86421">
        <ele>389</ele>
        <time>2019-06-11T20:17:59Z</time>
      </trkpt>
      <trkpt lat="46.44907" lon="6.86535">
        <ele>387</ele>
        <time>2019-06-11T20:18:13Z</time>
      </trkpt>
      <trkpt lat="46.44871" lon="6.86948">
        <ele>385</ele>
        <time>2019-06-11T20:19:04Z</time>
      </trkpt>
      <trkpt lat="46.44848" lon="6.87262">
        <ele>383</ele>
        <time>2019-06-11T20:19:43Z</time>
      </trkpt>
      <trkpt lat="46.44843" lon="6.87294">
        <ele>383</ele>
        <time>2019-06-11T20:19:47Z</time>
      </trkpt>
      <trkpt lat="46.4483" lon="6.87333">
        <ele>383</ele>
        <time>2019-06-11T20:19:52Z</time>
      </trkpt>
      <trkpt lat="46.44817" lon="6.87358">
        <ele>383</ele>
        <time>2019-06-11T20:19:56Z</time>
      </trkpt>
      <trkpt lat="46.44808" lon="6.87373">
        <ele>384</ele>
        <time>2019-06-11T20:19:59Z</time>
      </trkpt>
      <trkpt lat="46.44752" lon="6.87438">
        <ele>384</ele>
        <time>2019-06-11T20:20:11Z</time>
      </trkpt>
      <trkpt lat="46.4474" lon="6.87457">
        <ele>383</ele>
        <time>2019-06-11T20:20:15Z</time>
      </trkpt>
      <trkpt lat="46.44729" lon="6.8748">
        <ele>383</ele>
        <time>2019-06-11T20:20:18Z</time>
      </trkpt>
      <trkpt lat="46.4471" lon="6.87528">
        <ele>382</ele>
        <time>2019-06-11T20:20:25Z</time>
      </trkpt>
      <trkpt lat="46.44696" lon="6.87592">
        <ele>384</ele>
        <time>2019-06-11T20:20:33Z</time>
      </trkpt>
      <trkpt lat="46.44692" lon="6.87606">
        <ele>384</ele>
        <time>2019-06-11T20:20:35Z</time>
      </trkpt>
      <trkpt lat="46.44633" lon="6.87762">
        <ele>385</ele>
        <time>2019-06-11T20:20:57Z</time>
      </trkpt>
      <trkpt lat="46.44606" lon="6.87842">
        <ele>382</ele>
        <time>2019-06-11T20:21:08Z</time>
      </trkpt>
      <trkpt lat="46.44594" lon="6.87867">
        <ele>382</ele>
        <time>2019-06-11T20:21:11Z</time>
      </trkpt>
      <trkpt lat="46.44578" lon="6.87885">
        <ele>382</ele>
        <time>2019-06-11T20:21:15Z</time>
      </trkpt>
      <trkpt lat="46.44564" lon="6.87894">
        <ele>382</ele>
        <time>2019-06-11T20:21:18Z</time>
      </trkpt>
      <trkpt lat="46.44356" lon="6.87971">
        <ele>386</ele>
        <time>2019-06-11T20:21:56Z</time>
      </trkpt>
      <trkpt lat="46.4433" lon="6.87983">
        <ele>386</ele>
        <time>2019-06-11T20:22:01Z</time>
      </trkpt>
      <trkpt lat="46.44307" lon="6.87999">
        <ele>384</ele>
        <time>2019-06-11T20:22:05Z</time>
      </trkpt>
      <trkpt lat="46.44295" lon="6.8801">
        <ele>384</ele>
        <time>2019-06-11T20:22:08Z</time>
      </trkpt>
      <trkpt lat="46.44285" lon="6.88022">
        <ele>383</ele>
        <time>2019-06-11T20:22:10Z</time>
      </trkpt>
      <trkpt lat="46.44269" lon="6.88046">
        <ele>383</ele>
        <time>2019-06-11T20:22:14Z</time>
      </trkpt>
      <trkpt lat="46.44201" lon="6.88183">
        <ele>382</ele>
        <time>2019-06-11T20:22:35Z</time>
      </trkpt>
      <trkpt lat="46.44195" lon="6.88199">
        <ele>381</ele>
        <time>2019-06-11T20:22:37Z</time>
      </trkpt>
      <trkpt lat="46.4419" lon="6.88215">
        <ele>381</ele>
        <time>2019-06-11T20:22:39Z</time>
      </trkpt>
      <trkpt lat="46.44187" lon="6.88247">
        <ele>380</ele>
        <time>2019-06-11T20:22:43Z</time>
      </trkpt>
      <trkpt lat="46.44187" lon="6.88261">
        <ele>380</ele>
        <time>2019-06-11T20:22:45Z</time>
      </trkpt>
      <trkpt lat="46.44194" lon="6.88352">
        <ele>379</ele>
        <time>2019-06-11T20:22:56Z</time>
      </trkpt>
      <trkpt lat="46.442" lon="6.88383">
        <ele>378</ele>
        <time>2019-06-11T20:23:00Z</time>
      </trkpt>
      <trkpt lat="46.4421" lon="6.88404">
        <ele>378</ele>
        <time>2019-06-11T20:23:03Z</time>
      </trkpt>
      <trkpt lat="46.44237" lon="6.88444">
        <ele>380</ele>
        <time>2019-06-11T20:23:10Z</time>
      </trkpt>
      <trkpt lat="46.44243" lon="6.88456">
        <ele>381</ele>
        <time>2019-06-11T20:23:12Z</time>
      </trkpt>
      <trkpt lat="46.44247" lon="6.88465">
        <ele>381</ele>
        <time>2019-06-11T20:23:13Z</time>
      </trkpt>
      <trkpt lat="46.44255" lon="6.88497">
        <ele>381</ele>
        <time>2019-06-11T20:23:17Z</time>
      </trkpt>
      <trkpt lat="46.44257" lon="6.8851">
        <ele>381</ele>
        <time>2019-06-11T20:23:19Z</time>
      </trkpt>
      <trkpt lat="46.44258" lon="6.8854">
        <ele>380</ele>
        <time>2019-06-11T20:23:23Z</time>
      </trkpt>
      <trkpt lat="46.44248" lon="6.8865">
        <ele>379</ele>
        <time>2019-06-11T20:23:36Z</time>
      </trkpt>
      <trkpt lat="46.44242" lon="6.88684">
        <ele>380</ele>
        <time>2019-06-11T20:23:41Z</time>
      </trkpt>
      <trkpt lat="46.44214" lon="6.88765">
        <ele>383</ele>
        <time>2019-06-11T20:23:52Z</time>
      </trkpt>
      <trkpt lat="46.44134" lon="6.88984">
        <ele>386</ele>
        <time>2019-06-11T20:24:22Z</time>
      </trkpt>
      <trkpt lat="46.44119" lon="6.89017">
        <ele>385</ele>
        <time>2019-06-11T20:24:27Z</time>
      </trkpt>
      <trkpt lat="46.44078" lon="6.89127">
        <ele>385</ele>
        <time>2019-06-11T20:24:42Z</time>
      </trkpt>
      <trkpt lat="46.44069" lon="6.89143">
        <ele>385</ele>
        <time>2019-06-11T20:24:45Z</time>
      </trkpt>
      <trkpt lat="46.4405" lon="6.89194">
        <ele>384</ele>
        <time>2019-06-11T20:24:52Z</time>
      </trkpt>
      <trkpt lat="46.44046" lon="6.89211">
        <ele>384</ele>
        <time>2019-06-11T20:24:54Z</time>
      </trkpt>
      <trkpt lat="46.44044" lon="6.8923">
        <ele>384</ele>
        <time>2019-06-11T20:24:56Z</time>
      </trkpt>
      <trkpt lat="46.44027" lon="6.89322">
        <ele>383</ele>
        <time>2019-06-11T20:25:08Z</time>
      </trkpt>
      <trkpt lat="46.44022" lon="6.89364">
        <ele>384</ele>
        <time>2019-06-11T20:25:13Z</time>
      </trkpt>
      <trkpt lat="46.44018" lon="6.89432">
        <ele>385</ele>
        <time>2019-06-11T20:25:22Z</time>
      </trkpt>
      <trkpt lat="46.44017" lon="6.89472">
        <ele>386</ele>
        <time>2019-06-11T20:25:27Z</time>
      </trkpt>
      <trkpt lat="46.44023" lon="6.89599">
        <ele>384</ele>
        <time>2019-06-11T20:25:42Z</time>
      </trkpt>
      <trkpt lat="46.44041" lon="6.89805">
        <ele>381</ele>
        <time>2019-06-11T20:26:08Z</time>
      </trkpt>
      <trkpt lat="46.44058" lon="6.89885">
        <ele>380</ele>
        <time>2019-06-11T20:26:18Z</time>
      </trkpt>
      <trkpt lat="46.44066" lon="6.89928">
        <ele>380</ele>
        <time>2019-06-11T20:26:23Z</time>
      </trkpt>
      <trkpt lat="46.44075" lon="6.90025">
        <ele>381</ele>
        <time>2019-06-11T20:26:35Z</time>
      </trkpt>
      <trkpt lat="46.44082" lon="6.90146">
        <ele>384</ele>
        <time>2019-06-11T20:26:50Z</time>
      </trkpt>
      <trkpt lat="46.44079" lon="6.90189">
        <ele>385</ele>
        <time>2019-06-11T20:26:56Z</time>
      </trkpt>
      <trkpt lat="46.44072" lon="6.9022">
        <ele>386</ele>
        <time>2019-06-11T20:27:00Z</time>
      </trkpt>
      <trkpt lat="46.44056" lon="6.90267">
        <ele>387</ele>
        <time>2019-06-11T20:27:06Z</time>
      </trkpt>
      <trkpt lat="46.44025" lon="6.90337">
        <ele>389</ele>
        <time>2019-06-11T20:27:16Z</time>
      </trkpt>
      <trkpt lat="46.43975" lon="6.90436">
        <ele>387</ele>
        <time>2019-06-11T20:27:31Z</time>
      </trkpt>
      <trkpt lat="46.43901" lon="6.90573">
        <ele>387</ele>
        <time>2019-06-11T20:27:53Z</time>
      </trkpt>
      <trkpt lat="46.43877" lon="6.9061">
        <ele>387</ele>
        <time>2019-06-11T20:27:59Z</time>
      </trkpt>
      <trkpt lat="46.43794" lon="6.90722">
        <ele>387</ele>
        <time>2019-06-11T20:28:19Z</time>
      </trkpt>
      <trkpt lat="46.43734" lon="6.90798">
        <ele>388</ele>
        <time>2019-06-11T20:28:33Z</time>
      </trkpt>
      <trkpt lat="46.43699" lon="6.90835">
        <ele>390</ele>
        <time>2019-06-11T20:28:41Z</time>
      </trkpt>
      <trkpt lat="46.43679" lon="6.90854">
        <ele>390</ele>
        <time>2019-06-11T20:28:45Z</time>
      </trkpt>
      <trkpt lat="46.4363" lon="6.90897">
        <ele>388</ele>
        <time>2019-06-11T20:28:55Z</time>
      </trkpt>
      <trkpt lat="46.43546" lon="6.90962">
        <ele>388</ele>
        <time>2019-06-11T20:29:12Z</time>
      </trkpt>
      <trkpt lat="46.43526" lon="6.90974">
        <ele>388</ele>
        <time>2019-06-11T20:29:16Z</time>
      </trkpt>
      <trkpt lat="46.435" lon="6.90984">
        <ele>387</ele>
        <time>2019-06-11T20:29:21Z</time>
      </trkpt>
      <trkpt lat="46.43455" lon="6.90996">
        <ele>386</ele>
        <time>2019-06-11T20:29:29Z</time>
      </trkpt>
      <trkpt lat="46.43381" lon="6.91009">
        <ele>386</ele>
        <time>2019-06-11T20:29:42Z</time>
      </trkpt>
      <trkpt lat="46.43284" lon="6.91015">
        <ele>387</ele>
        <time>2019-06-11T20:30:00Z</time>
      </trkpt>
      <trkpt lat="46.43252" lon="6.91019">
        <ele>387</ele>
        <time>2019-06-11T20:30:05Z</time>
      </trkpt>
      <trkpt lat="46.43218" lon="6.91028">
        <ele>388</ele>
        <time>2019-06-11T20:30:11Z</time>
      </trkpt>
      <trkpt lat="46.43164" lon="6.91048">
        <ele>388</ele>
        <time>2019-06-11T20:30:21Z</time>
      </trkpt>
      <trkpt lat="46.43123" lon="6.91066">
        <ele>391</ele>
        <time>2019-06-11T20:30:29Z</time>
      </trkpt>
      <trkpt lat="46.43105" lon="6.91078">
        <ele>392</ele>
        <time>2019-06-11T20:30:33Z</time>
      </trkpt>
      <trkpt lat="46.43084" lon="6.91099">
        <ele>393</ele>
        <time>2019-06-11T20:30:37Z</time>
      </trkpt>
      <trkpt lat="46.43071" lon="6.9112">
        <ele>392</ele>
        <time>2019-06-11T20:30:41Z</time>
      </trkpt>
      <trkpt lat="46.43038" lon="6.91217">
        <ele>390</ele>
        <time>2019-06-11T20:30:54Z</time>
      </trkpt>
      <trkpt lat="46.43031" lon="6.91244">
        <ele>389</ele>
        <time>2019-06-11T20:30:57Z</time>
      </trkpt>
      <trkpt lat="46.43027" lon="6.91269">
        <ele>388</ele>
        <time>2019-06-11T20:31:01Z</time>
      </trkpt>
      <trkpt lat="46.43026" lon="6.91397">
        <ele>390</ele>
        <time>2019-06-11T20:31:16Z</time>
      </trkpt>
      <trkpt lat="46.43017" lon="6.91498">
        <ele>391</ele>
        <time>2019-06-11T20:31:29Z</time>
      </trkpt>
      <trkpt lat="46.43024" lon="6.91618">
        <ele>389</ele>
        <time>2019-06-11T20:31:43Z</time>
      </trkpt>
      <trkpt lat="46.43033" lon="6.91705">
        <ele>394</ele>
        <time>2019-06-11T20:31:54Z</time>
      </trkpt>
      <trkpt lat="46.43034" lon="6.91737">
        <ele>396</ele>
        <time>2019-06-11T20:31:58Z</time>
      </trkpt>
      <trkpt lat="46.43033" lon="6.91761">
        <ele>397</ele>
        <time>2019-06-11T20:32:01Z</time>
      </trkpt>
      <trkpt lat="46.43029" lon="6.91779">
        <ele>398</ele>
        <time>2019-06-11T20:32:03Z</time>
      </trkpt>
      <trkpt lat="46.4301" lon="6.91851">
        <ele>399</ele>
        <time>2019-06-11T20:32:13Z</time>
      </trkpt>
      <trkpt lat="46.42994" lon="6.919">
        <ele>402</ele>
        <time>2019-06-11T20:32:20Z</time>
      </trkpt>
      <trkpt lat="46.42977" lon="6.91947">
        <ele>406</ele>
        <time>2019-06-11T20:32:26Z</time>
      </trkpt>
      <trkpt lat="46.42957" lon="6.9199">
        <ele>407</ele>
        <time>2019-06-11T20:32:32Z</time>
      </trkpt>
      <trkpt lat="46.42909" lon="6.92066">
        <ele>406</ele>
        <time>2019-06-11T20:32:45Z</time>
      </trkpt>
      <trkpt lat="46.42885" lon="6.92101">
        <ele>409</ele>
        <time>2019-06-11T20:32:51Z</time>
      </trkpt>
      <trkpt lat="46.42854" lon="6.92134">
        <ele>408</ele>
        <time>2019-06-11T20:32:58Z</time>
      </trkpt>
      <trkpt lat="46.42784" lon="6.92199">
        <ele>404</ele>
        <time>2019-06-11T20:33:13Z</time>
      </trkpt>
      <trkpt lat="46.42729" lon="6.92246">
        <ele>399</ele>
        <time>2019-06-11T20:33:24Z</time>
      </trkpt>
      <trkpt lat="46.42678" lon="6.92283">
        <ele>393</ele>
        <time>2019-06-11T20:33:34Z</time>
      </trkpt>
      <trkpt lat="46.42626" lon="6.92313">
        <ele>392</ele>
        <time>2019-06-11T20:33:44Z</time>
      </trkpt>
      <trkpt lat="46.42605" lon="6.92321">
        <ele>392</ele>
        <time>2019-06-11T20:33:48Z</time>
      </trkpt>
      <trkpt lat="46.42551" lon="6.92355">
        <ele>396</ele>
        <time>2019-06-11T20:33:59Z</time>
      </trkpt>
      <trkpt lat="46.42515" lon="6.92385">
        <ele>400</ele>
        <time>2019-06-11T20:34:06Z</time>
      </trkpt>
      <trkpt lat="46.42493" lon="6.92407">
        <ele>403</ele>
        <time>2019-06-11T20:34:11Z</time>
      </trkpt>
      <trkpt lat="46.42477" lon="6.92429">
        <ele>405</ele>
        <time>2019-06-11T20:34:15Z</time>
      </trkpt>
      <trkpt lat="46.42434" lon="6.92504">
        <ele>407</ele>
        <time>2019-06-11T20:34:27Z</time>
      </trkpt>
      <trkpt lat="46.42409" lon="6.92544">
        <ele>409</ele>
        <time>2019-06-11T20:34:33Z</time>
      </trkpt>
      <trkpt lat="46.42395" lon="6.92554">
        <ele>408</ele>
        <time>2019-06-11T20:34:36Z</time>
      </trkpt>
      <trkpt lat="46.42387" lon="6.92557">
        <ele>408</ele>
        <time>2019-06-11T20:34:37Z</time>
      </trkpt>
      <trkpt lat="46.42354" lon="6.92561">
        <ele>405</ele>
        <time>2019-06-11T20:34:43Z</time>
      </trkpt>
      <trkpt lat="46.42344" lon="6.9256">
        <ele>404</ele>
        <time>2019-06-11T20:34:45Z</time>
      </trkpt>
      <trkpt lat="46.42272" lon="6.92543">
        <ele>404</ele>
        <time>2019-06-11T20:34:58Z</time>
      </trkpt>
      <trkpt lat="46.42237" lon="6.92538">
        <ele>405</ele>
        <time>2019-06-11T20:35:04Z</time>
      </trkpt>
      <trkpt lat="46.42204" lon="6.92544">
        <ele>404</ele>
        <time>2019-06-11T20:35:10Z</time>
      </trkpt>
      <trkpt lat="46.42023" lon="6.92605">
        <ele>398</ele>
        <time>2019-06-11T20:35:43Z</time>
      </trkpt>
      <trkpt lat="46.42006" lon="6.92614">
        <ele>396</ele>
        <time>2019-06-11T20:35:47Z</time>
      </trkpt>
      <trkpt lat="46.4199" lon="6.92631">
        <ele>395</ele>
        <time>2019-06-11T20:35:50Z</time>
      </trkpt>
      <trkpt lat="46.4197" lon="6.9266">
        <ele>395</ele>
        <time>2019-06-11T20:35:55Z</time>
      </trkpt>
      <trkpt lat="46.4195" lon="6.92695">
        <ele>394</ele>
        <time>2019-06-11T20:36:01Z</time>
      </trkpt>
      <trkpt lat="46.41911" lon="6.92782">
        <ele>399</ele>
        <time>2019-06-11T20:36:13Z</time>
      </trkpt>
      <trkpt lat="46.41897" lon="6.92804">
        <ele>401</ele>
        <time>2019-06-11T20:36:17Z</time>
      </trkpt>
      <trkpt lat="46.41883" lon="6.92818">
        <ele>402</ele>
        <time>2019-06-11T20:36:20Z</time>
      </trkpt>
      <trkpt lat="46.41849" lon="6.92837">
        <ele>406</ele>
        <time>2019-06-11T20:36:27Z</time>
      </trkpt>
      <trkpt lat="46.41825" lon="6.92843">
        <ele>410</ele>
        <time>2019-06-11T20:36:31Z</time>
      </trkpt>
      <trkpt lat="46.41809" lon="6.92842">
        <ele>411</ele>
        <time>2019-06-11T20:36:34Z</time>
      </trkpt>
      <trkpt lat="46.41795" lon="6.92837">
        <ele>409</ele>
        <time>2019-06-11T20:36:36Z</time>
      </trkpt>
      <trkpt lat="46.41752" lon="6.92813">
        <ele>402</ele>
        <time>2019-06-11T20:36:45Z</time>
      </trkpt>
      <trkpt lat="46.41734" lon="6.92806">
        <ele>398</ele>
        <time>2019-06-11T20:36:48Z</time>
      </trkpt>
      <trkpt lat="46.41554" lon="6.92812">
        <ele>389</ele>
        <time>2019-06-11T20:37:20Z</time>
      </trkpt>
      <trkpt lat="46.41505" lon="6.92822">
        <ele>387</ele>
        <time>2019-06-11T20:37:29Z</time>
      </trkpt>
      <trkpt lat="46.41445" lon="6.92849">
        <ele>390</ele>
        <time>2019-06-11T20:37:40Z</time>
      </trkpt>
      <trkpt lat="46.4142" lon="6.92867">
        <ele>392</ele>
        <time>2019-06-11T20:37:45Z</time>
      </trkpt>
      <trkpt lat="46.41233" lon="6.93042">
        <ele>395</ele>
        <time>2019-06-11T20:38:24Z</time>
      </trkpt>
      <trkpt lat="46.41198" lon="6.93067">
        <ele>391</ele>
        <time>2019-06-11T20:38:31Z</time>
      </trkpt>
      <trkpt lat="46.41173" lon="6.93077">
        <ele>384</ele>
        <time>2019-06-11T20:38:36Z</time>
      </trkpt>
      <trkpt lat="46.41001" lon="6.93129">
        <ele>387</ele>
        <time>2019-06-11T20:39:07Z</time>
      </trkpt>
      <trkpt lat="46.40881" lon="6.93148">
        <ele>390</ele>
        <time>2019-06-11T20:39:29Z</time>
      </trkpt>
      <trkpt lat="46.40845" lon="6.93149">
        <ele>389</ele>
        <time>2019-06-11T20:39:35Z</time>
      </trkpt>
      <trkpt lat="46.40828" lon="6.93147">
        <ele>389</ele>
        <time>2019-06-11T20:39:38Z</time>
      </trkpt>
      <trkpt lat="46.40802" lon="6.93139">
        <ele>388</ele>
        <time>2019-06-11T20:39:43Z</time>
      </trkpt>
      <trkpt lat="46.40711" lon="6.93104">
        <ele>385</ele>
        <time>2019-06-11T20:40:00Z</time>
      </trkpt>
      <trkpt lat="46.40628" lon="6.93058">
        <ele>386</ele>
        <time>2019-06-11T20:40:15Z</time>
      </trkpt>
      <trkpt lat="46.40604" lon="6.93041">
        <ele>386</ele>
        <time>2019-06-11T20:40:20Z</time>
      </trkpt>
      <trkpt lat="46.40488" lon="6.92939">
        <ele>384</ele>
        <time>2019-06-11T20:40:44Z</time>
      </trkpt>
      <trkpt lat="46.40415" lon="6.92884">
        <ele>383</ele>
        <time>2019-06-11T20:40:59Z</time>
      </trkpt>
      <trkpt lat="46.40259" lon="6.92788">
        <ele>386</ele>
        <time>2019-06-11T20:41:29Z</time>
      </trkpt>
      <trkpt lat="46.40245" lon="6.92775">
        <ele>386</ele>
        <time>2019-06-11T20:41:32Z</time>
      </trkpt>
      <trkpt lat="46.40227" lon="6.92751">
        <ele>384</ele>
        <time>2019-06-11T20:41:36Z</time>
      </trkpt>
      <trkpt lat="46.40178" lon="6.9267">
        <ele>382</ele>
        <time>2019-06-11T20:41:50Z</time>
      </trkpt>
      <trkpt lat="46.40142" lon="6.92606">
        <ele>379</ele>
        <time>2019-06-11T20:42:00Z</time>
      </trkpt>
      <trkpt lat="46.40126" lon="6.92585">
        <ele>378</ele>
        <time>2019-06-11T20:42:04Z</time>
      </trkpt>
      <trkpt lat="46.40109" lon="6.92571">
        <ele>377</ele>
        <time>2019-06-11T20:42:07Z</time>
      </trkpt>
      <trkpt lat="46.40082" lon="6.92557">
        <ele>375</ele>
        <time>2019-06-11T20:42:12Z</time>
      </trkpt>
      <trkpt lat="46.40066" lon="6.92554">
        <ele>374</ele>
        <time>2019-06-11T20:42:15Z</time>
      </trkpt>
      <trkpt lat="46.4" lon="6.92554">
        <ele>373</ele>
        <time>2019-06-11T20:42:27Z</time>
      </trkpt>
      <trkpt lat="46.39936" lon="6.92542">
        <ele>373</ele>
        <time>2019-06-11T20:42:38Z</time>
      </trkpt>
      <trkpt lat="46.39904" lon="6.92529">
        <ele>374</ele>
        <time>2019-06-11T20:42:44Z</time>
      </trkpt>
      <trkpt lat="46.39861" lon="6.92506">
        <ele>376</ele>
        <time>2019-06-11T20:42:52Z</time>
      </trkpt>
      <trkpt lat="46.39826" lon="6.92481">
        <ele>377</ele>
        <time>2019-06-11T20:42:59Z</time>
      </trkpt>
      <trkpt lat="46.39717" lon="6.92387">
        <ele>375</ele>
        <time>2019-06-11T20:43:22Z</time>
      </trkpt>
      <trkpt lat="46.39679" lon="6.92345">
        <ele>376</ele>
        <time>2019-06-11T20:43:30Z</time>
      </trkpt>
      <trkpt lat="46.39627" lon="6.92272">
        <ele>375</ele>
        <time>2019-06-11T20:43:43Z</time>
      </trkpt>
      <trkpt lat="46.39606" lon="6.92248">
        <ele>375</ele>
        <time>2019-06-11T20:43:48Z</time>
      </trkpt>
      <trkpt lat="46.39586" lon="6.92228">
        <ele>376</ele>
        <time>2019-06-11T20:43:52Z</time>
      </trkpt>
      <trkpt lat="46.39577" lon="6.92222">
        <ele>376</ele>
        <time>2019-06-11T20:43:54Z</time>
      </trkpt>
      <trkpt lat="46.3953" lon="6.92202">
        <ele>375</ele>
        <time>2019-06-11T20:44:03Z</time>
      </trkpt>
      <trkpt lat="46.39383" lon="6.9218">
        <ele>375</ele>
        <time>2019-06-11T20:44:29Z</time>
      </trkpt>
      <trkpt lat="46.39435" lon="6.92081">
        <ele>375</ele>
        <time>2019-06-11T20:44:44Z</time>
      </trkpt>
      <trkpt lat="46.39389" lon="6.91967">
        <ele>376</ele>
        <time>2019-06-11T20:45:01Z</time>
      </trkpt>
      <trkpt lat="46.39381" lon="6.91937">
        <ele>376</ele>
        <time>2019-06-11T20:45:05Z</time>
      </trkpt>
      <trkpt lat="46.39378" lon="6.91857">
        <ele>376</ele>
        <time>2019-06-11T20:45:14Z</time>
      </trkpt>
      <trkpt lat="46.39374" lon="6.9184">
        <ele>376</ele>
        <time>2019-06-11T20:45:17Z</time>
      </trkpt>
      <trkpt lat="46.39342" lon="6.91755">
        <ele>378</ele>
        <time>2019-06-11T20:45:28Z</time>
      </trkpt>
      <trkpt lat="46.39345" lon="6.91675">
        <ele>378</ele>
        <time>2019-06-11T20:45:38Z</time>
      </trkpt>
      <trkpt lat="46.39366" lon="6.91653">
        <ele>377</ele>
        <time>2019-06-11T20:45:43Z</time>
      </trkpt>
      <trkpt lat="46.39374" lon="6.91607">
        <ele>377</ele>
        <time>2019-06-11T20:45:49Z</time>
      </trkpt>
      <trkpt lat="46.39403" lon="6.91483">
        <ele>381</ele>
        <time>2019-06-11T20:46:05Z</time>
      </trkpt>
      <trkpt lat="46.39436" lon="6.91433">
        <ele>381</ele>
        <time>2019-06-11T20:46:13Z</time>
      </trkpt>
      <trkpt lat="46.39465" lon="6.9138">
        <ele>379</ele>
        <time>2019-06-11T20:46:22Z</time>
      </trkpt>
      <trkpt lat="46.39468" lon="6.91354">
        <ele>378</ele>
        <time>2019-06-11T20:46:25Z</time>
      </trkpt>
      <trkpt lat="46.39466" lon="6.91325">
        <ele>379</ele>
        <time>2019-06-11T20:46:28Z</time>
      </trkpt>
      <trkpt lat="46.39441" lon="6.91187">
        <ele>379</ele>
        <time>2019-06-11T20:46:46Z</time>
      </trkpt>
      <trkpt lat="46.39402" lon="6.91061">
        <ele>378</ele>
        <time>2019-06-11T20:47:03Z</time>
      </trkpt>
      <trkpt lat="46.39367" lon="6.90978">
        <ele>376</ele>
        <time>2019-06-11T20:47:15Z</time>
      </trkpt>
      <trkpt lat="46.39324" lon="6.90922">
        <ele>376</ele>
        <time>2019-06-11T20:47:25Z</time>
      </trkpt>
      <trkpt lat="46.39276" lon="6.90806">
        <ele>378</ele>
        <time>2019-06-11T20:47:42Z</time>
      </trkpt>
      <trkpt lat="46.39098" lon="6.90579">
        <ele>381</ele>
        <time>2019-06-11T20:48:24Z</time>
      </trkpt>
      <trkpt lat="46.39053" lon="6.90551">
        <ele>381</ele>
        <time>2019-06-11T20:48:33Z</time>
      </trkpt>
      <trkpt lat="46.39005" lon="6.90524">
        <ele>380</ele>
        <time>2019-06-11T20:48:42Z</time>
      </trkpt>
      <trkpt lat="46.38961" lon="6.90517">
        <ele>380</ele>
        <time>2019-06-11T20:48:50Z</time>
      </trkpt>
      <trkpt lat="46.3886" lon="6.90472">
        <ele>379</ele>
        <time>2019-06-11T20:49:08Z</time>
      </trkpt>
      <trkpt lat="46.38755" lon="6.90447">
        <ele>375</ele>
        <time>2019-06-11T20:49:27Z</time>
      </trkpt>
      <trkpt lat="46.38613" lon="6.9042">
        <ele>374</ele>
        <time>2019-06-11T20:49:53Z</time>
      </trkpt>
      <trkpt lat="46.38451" lon="6.90301">
        <ele>374</ele>
        <time>2019-06-11T20:50:25Z</time>
      </trkpt>
      <trkpt lat="46.38441" lon="6.90289">
        <ele>374</ele>
        <time>2019-06-11T20:50:27Z</time>
      </trkpt>
      <trkpt lat="46.38426" lon="6.90266">
        <ele>374</ele>
        <time>2019-06-11T20:50:31Z</time>
      </trkpt>
      <trkpt lat="46.38392" lon="6.9014">
        <ele>375</ele>
        <time>2019-06-11T20:50:48Z</time>
      </trkpt>
      <trkpt lat="46.38361" lon="6.90036">
        <ele>375</ele>
        <time>2019-06-11T20:51:02Z</time>
      </trkpt>
      <trkpt lat="46.38295" lon="6.89986">
        <ele>375</ele>
        <time>2019-06-11T20:51:15Z</time>
      </trkpt>
      <trkpt lat="46.3825" lon="6.89969">
        <ele>375</ele>
        <time>2019-06-11T20:51:23Z</time>
      </trkpt>
      <trkpt lat="46.3823" lon="6.89966">
        <ele>375</ele>
        <time>2019-06-11T20:51:27Z</time>
      </trkpt>
      <trkpt lat="46.38202" lon="6.89968">
        <ele>374</ele>
        <time>2019-06-11T20:51:32Z</time>
      </trkpt>
      <trkpt lat="46.3819" lon="6.89971">
        <ele>374</ele>
        <time>2019-06-11T20:51:34Z</time>
      </trkpt>
      <trkpt lat="46.38179" lon="6.8998">
        <ele>374</ele>
        <time>2019-06-11T20:51:36Z</time>
      </trkpt>
      <trkpt lat="46.38173" lon="6.89972">
        <ele>374</ele>
        <time>2019-06-11T20:51:38Z</time>
      </trkpt>
      <trkpt lat="46.38157" lon="6.89962">
        <ele>374</ele>
        <time>2019-06-11T20:51:41Z</time>
      </trkpt>
      <trkpt lat="46.38158" lon="6.89931">
        <ele>374</ele>
        <time>2019-06-11T20:51:45Z</time>
      </trkpt>
      <trkpt lat="46.38139" lon="6.89857">
        <ele>375</ele>
        <time>2019-06-11T20:51:54Z</time>
      </trkpt>
      <trkpt lat="46.38133" lon="6.89815">
        <ele>375</ele>
        <time>2019-06-11T20:52:00Z</time>
      </trkpt>
      <trkpt lat="46.38131" lon="6.89785">
        <ele>375</ele>
        <time>2019-06-11T20:52:03Z</time>
      </trkpt>
      <trkpt lat="46.3813" lon="6.89715">
        <ele>375</ele>
        <time>2019-06-11T20:52:12Z</time>
      </trkpt>
      <trkpt lat="46.3814" lon="6.89453">
        <ele>374</ele>
        <time>2019-06-11T20:52:44Z</time>
      </trkpt>
      <trkpt lat="46.38143" lon="6.8941">
        <ele>374</ele>
        <time>2019-06-11T20:52:49Z</time>
      </trkpt>
      <trkpt lat="46.38164" lon="6.89411">
        <ele>375</ele>
        <time>2019-06-11T20:52:53Z</time>
      </trkpt>
      <trkpt lat="46.38181" lon="6.89415">
        <ele>375</ele>
        <time>2019-06-11T20:52:56Z</time>
      </trkpt>
      <trkpt lat="46.38244" lon="6.8942">
        <ele>376</ele>
        <time>2019-06-11T20:53:08Z</time>
      </trkpt>
      <trkpt lat="46.3825" lon="6.89382">
        <ele>379</ele>
        <time>2019-06-11T20:53:12Z</time>
      </trkpt>
      <trkpt lat="46.38267" lon="6.89247">
        <ele>388</ele>
        <time>2019-06-11T20:53:29Z</time>
      </trkpt>
      <trkpt lat="46.38271" lon="6.89187">
        <ele>389</ele>
        <time>2019-06-11T20:53:37Z</time>
      </trkpt>
      <trkpt lat="46.38261" lon="6.89121">
        <ele>388</ele>
        <time>2019-06-11T20:53:45Z</time>
      </trkpt>
      <trkpt lat="46.38255" lon="6.89098">
        <ele>387</ele>
        <time>2019-06-11T20:53:48Z</time>
      </trkpt>
      <trkpt lat="46.3825" lon="6.89063">
        <ele>387</ele>
        <time>2019-06-11T20:53:52Z</time>
      </trkpt>
      <trkpt lat="46.3823" lon="6.89024">
        <ele>385</ele>
        <time>2019-06-11T20:53:58Z</time>
      </trkpt>
      <trkpt lat="46.38225" lon="6.88981">
        <ele>384</ele>
        <time>2019-06-11T20:54:04Z</time>
      </trkpt>
      <trkpt lat="46.38221" lon="6.889">
        <ele>382</ele>
        <time>2019-06-11T20:54:14Z</time>
      </trkpt>
      <trkpt lat="46.38215" lon="6.88872">
        <ele>381</ele>
        <time>2019-06-11T20:54:17Z</time>
      </trkpt>
      <trkpt lat="46.38206" lon="6.88857">
        <ele>381</ele>
        <time>2019-06-11T20:54:20Z</time>
      </trkpt>
      <trkpt lat="46.38187" lon="6.88834">
        <ele>380</ele>
        <time>2019-06-11T20:54:24Z</time>
      </trkpt>
      <trkpt lat="46.38077" lon="6.88723">
        <ele>375</ele>
        <time>2019-06-11T20:54:48Z</time>
      </trkpt>
      <trkpt lat="46.38043" lon="6.88677">
        <ele>374</ele>
        <time>2019-06-11T20:54:56Z</time>
      </trkpt>
      <trkpt lat="46.38029" lon="6.8866">
        <ele>373</ele>
        <time>2019-06-11T20:54:59Z</time>
      </trkpt>
      <trkpt lat="46.37995" lon="6.8864">
        <ele>373</ele>
        <time>2019-06-11T20:55:06Z</time>
      </trkpt>
      <trkpt lat="46.37967" lon="6.88616">
        <ele>373</ele>
        <time>2019-06-11T20:55:12Z</time>
      </trkpt>
      <trkpt lat="46.37877" lon="6.88509">
        <ele>377</ele>
        <time>2019-06-11T20:55:32Z</time>
      </trkpt>
      <trkpt lat="46.37831" lon="6.88462">
        <ele>382</ele>
        <time>2019-06-11T20:55:42Z</time>
      </trkpt>
      <trkpt lat="46.37823" lon="6.88446">
        <ele>382</ele>
        <time>2019-06-11T20:55:45Z</time>
      </trkpt>
      <trkpt lat="46.37811" lon="6.88415">
        <ele>383</ele>
        <time>2019-06-11T20:55:49Z</time>
      </trkpt>
      <trkpt lat="46.37806" lon="6.88406">
        <ele>382</ele>
        <time>2019-06-11T20:55:51Z</time>
      </trkpt>
      <trkpt lat="46.37798" lon="6.88398">
        <ele>382</ele>
        <time>2019-06-11T20:55:52Z</time>
      </trkpt>
      <trkpt lat="46.37772" lon="6.88381">
        <ele>381</ele>
        <time>2019-06-11T20:55:57Z</time>
      </trkpt>
      <trkpt lat="46.37764" lon="6.88372">
        <ele>381</ele>
        <time>2019-06-11T20:55:59Z</time>
      </trkpt>
      <trkpt lat="46.37781" lon="6.88345">
        <ele>380</ele>
        <time>2019-06-11T20:56:04Z</time>
      </trkpt>
      <trkpt lat="46.37811" lon="6.88311">
        <ele>380</ele>
        <time>2019-06-11T20:56:10Z</time>
      </trkpt>
      <trkpt lat="46.37925" lon="6.88143">
        <ele>381</ele>
        <time>2019-06-11T20:56:39Z</time>
      </trkpt>
      <trkpt lat="46.3797" lon="6.8807">
        <ele>381</ele>
        <time>2019-06-11T20:56:51Z</time>
      </trkpt>
      <trkpt lat="46.37992" lon="6.88028">
        <ele>379</ele>
        <time>2019-06-11T20:56:58Z</time>
      </trkpt>
      <trkpt lat="46.38014" lon="6.87985">
        <ele>378</ele>
        <time>2019-06-11T20:57:04Z</time>
      </trkpt>
      <trkpt lat="46.38048" lon="6.87902">
        <ele>380</ele>
        <time>2019-06-11T20:57:16Z</time>
      </trkpt>
      <trkpt lat="46.38137" lon="6.87653">
        <ele>379</ele>
        <time>2019-06-11T20:57:51Z</time>
      </trkpt>
      <trkpt lat="46.38179" lon="6.87555">
        <ele>380</ele>
        <time>2019-06-11T20:58:05Z</time>
      </trkpt>
      <trkpt lat="46.38206" lon="6.87506">
        <ele>381</ele>
        <time>2019-06-11T20:58:13Z</time>
      </trkpt>
      <trkpt lat="46.3824" lon="6.87453">
        <ele>380</ele>
        <time>2019-06-11T20:58:21Z</time>
      </trkpt>
      <trkpt lat="46.38274" lon="6.87409">
        <ele>380</ele>
        <time>2019-06-11T20:58:30Z</time>
      </trkpt>
      <trkpt lat="46.38317" lon="6.87359">
        <ele>380</ele>
        <time>2019-06-11T20:58:39Z</time>
      </trkpt>
      <trkpt lat="46.38347" lon="6.87326">
        <ele>379</ele>
        <time>2019-06-11T20:58:46Z</time>
      </trkpt>
      <trkpt lat="46.38401" lon="6.87272">
        <ele>379</ele>
        <time>2019-06-11T20:58:58Z</time>
      </trkpt>
      <trkpt lat="46.38432" lon="6.87247">
        <ele>380</ele>
        <time>2019-06-11T20:59:04Z</time>
      </trkpt>
      <trkpt lat="46.38474" lon="6.87218">
        <ele>380</ele>
        <time>2019-06-11T20:59:12Z</time>
      </trkpt>
      <trkpt lat="46.38473" lon="6.87216">
        <ele>380</ele>
        <time>2019-06-11T20:59:13Z</time>
      </trkpt>
      <trkpt lat="46.38481" lon="6.87205">
        <ele>380</ele>
        <time>2019-06-11T20:59:15Z</time>
      </trkpt>
      <trkpt lat="46.38481" lon="6.87204">
        <ele>380</ele>
        <time>2019-06-11T20:59:15Z</time>
      </trkpt>
      <trkpt lat="46.38469" lon="6.87211">
        <ele>380</ele>
        <time>2019-06-11T20:59:17Z</time>
      </trkpt>
      <trkpt lat="46.38465" lon="6.87212">
        <ele>380</ele>
        <time>2019-06-11T20:59:18Z</time>
      </trkpt>
      <trkpt lat="46.38417" lon="6.87117">
        <ele>375</ele>
        <time>2019-06-11T20:59:32Z</time>
      </trkpt>
      <trkpt lat="46.38426" lon="6.87108">
        <ele>375</ele>
        <time>2019-06-11T20:59:34Z</time>
      </trkpt>
      <trkpt lat="46.38423" lon="6.87103">
        <ele>375</ele>
        <time>2019-06-11T20:59:35Z</time>
      </trkpt>
      <trkpt lat="46.38421" lon="6.87086">
        <ele>374</ele>
        <time>2019-06-11T20:59:37Z</time>
      </trkpt>
      <trkpt lat="46.38419" lon="6.87058">
        <ele>374</ele>
        <time>2019-06-11T20:59:41Z</time>
      </trkpt>
      <trkpt lat="46.38418" lon="6.86984">
        <ele>374</ele>
        <time>2019-06-11T20:59:50Z</time>
      </trkpt>
      <trkpt lat="46.38404" lon="6.86583">
        <ele>374</ele>
        <time>2019-06-11T21:00:39Z</time>
      </trkpt>
      <trkpt lat="46.38404" lon="6.86506">
        <ele>374</ele>
        <time>2019-06-11T21:00:48Z</time>
      </trkpt>
      <trkpt lat="46.38409" lon="6.86487">
        <ele>374</ele>
        <time>2019-06-11T21:00:51Z</time>
      </trkpt>
      <trkpt lat="46.38407" lon="6.86405">
        <ele>374</ele>
        <time>2019-06-11T21:01:01Z</time>
      </trkpt>
      <trkpt lat="46.38297" lon="6.86082">
        <ele>375</ele>
        <time>2019-06-11T21:01:45Z</time>
      </trkpt>
      <trkpt lat="46.38286" lon="6.86055">
        <ele>375</ele>
        <time>2019-06-11T21:01:49Z</time>
      </trkpt>
      <trkpt lat="46.38241" lon="6.85926">
        <ele>375</ele>
        <time>2019-06-11T21:02:07Z</time>
      </trkpt>
      <trkpt lat="46.38261" lon="6.85909">
        <ele>375</ele>
        <time>2019-06-11T21:02:11Z</time>
      </trkpt>
      <trkpt lat="46.3834" lon="6.85759">
        <ele>374</ele>
        <time>2019-06-11T21:02:34Z</time>
      </trkpt>
      <trkpt lat="46.38344" lon="6.85738">
        <ele>374</ele>
        <time>2019-06-11T21:02:37Z</time>
      </trkpt>
      <trkpt lat="46.38388" lon="6.85658">
        <ele>374</ele>
        <time>2019-06-11T21:02:49Z</time>
      </trkpt>
      <trkpt lat="46.38411" lon="6.85634">
        <ele>374</ele>
        <time>2019-06-11T21:02:54Z</time>
      </trkpt>
      <trkpt lat="46.38432" lon="6.85603">
        <ele>374</ele>
        <time>2019-06-11T21:03:00Z</time>
      </trkpt>
      <trkpt lat="46.38539" lon="6.85402">
        <ele>377</ele>
        <time>2019-06-11T21:03:31Z</time>
      </trkpt>
      <trkpt lat="46.38546" lon="6.85375">
        <ele>378</ele>
        <time>2019-06-11T21:03:34Z</time>
      </trkpt>
      <trkpt lat="46.38543" lon="6.85356">
        <ele>379</ele>
        <time>2019-06-11T21:03:37Z</time>
      </trkpt>
      <trkpt lat="46.38537" lon="6.85347">
        <ele>381</ele>
        <time>2019-06-11T21:03:38Z</time>
      </trkpt>
      <trkpt lat="46.38535" lon="6.85331">
        <ele>382</ele>
        <time>2019-06-11T21:03:40Z</time>
      </trkpt>
      <trkpt lat="46.38583" lon="6.85265">
        <ele>380</ele>
        <time>2019-06-11T21:03:52Z</time>
      </trkpt>
      <trkpt lat="46.38639" lon="6.85194">
        <ele>380</ele>
        <time>2019-06-11T21:04:05Z</time>
      </trkpt>
      <trkpt lat="46.38635" lon="6.85189">
        <ele>381</ele>
        <time>2019-06-11T21:04:06Z</time>
      </trkpt>
      <trkpt lat="46.3862" lon="6.85194">
        <ele>383</ele>
        <time>2019-06-11T21:04:09Z</time>
      </trkpt>
      <trkpt lat="46.38586" lon="6.85218">
        <ele>385</ele>
        <time>2019-06-11T21:04:16Z</time>
      </trkpt>
      <trkpt lat="46.38549" lon="6.85257">
        <ele>386</ele>
        <time>2019-06-11T21:04:24Z</time>
      </trkpt>
      <trkpt lat="46.38541" lon="6.85276">
        <ele>386</ele>
        <time>2019-06-11T21:04:27Z</time>
      </trkpt>
      <trkpt lat="46.38539" lon="6.85278">
        <ele>386</ele>
        <time>2019-06-11T21:04:27Z</time>
      </trkpt>
      <trkpt lat="46.38533" lon="6.85274">
        <ele>387</ele>
        <time>2019-06-11T21:04:28Z</time>
      </trkpt>
      <trkpt lat="46.38552" lon="6.85234">
        <ele>388</ele>
        <time>2019-06-11T21:04:34Z</time>
      </trkpt>
      <trkpt lat="46.38572" lon="6.85205">
        <ele>389</ele>
        <time>2019-06-11T21:04:39Z</time>
      </trkpt>
      <trkpt lat="46.3862" lon="6.85145">
        <ele>391</ele>
        <time>2019-06-11T21:04:50Z</time>
      </trkpt>
      <trkpt lat="46.38663" lon="6.85104">
        <ele>388</ele>
        <time>2019-06-11T21:05:00Z</time>
      </trkpt>
      <trkpt lat="46.38676" lon="6.85084">
        <ele>389</ele>
        <time>2019-06-11T21:05:03Z</time>
      </trkpt>
      <trkpt lat="46.38681" lon="6.85073">
        <ele>388</ele>
        <time>2019-06-11T21:05:05Z</time>
      </trkpt>
      <trkpt lat="46.387" lon="6.84989">
        <ele>390</ele>
        <time>2019-06-11T21:05:15Z</time>
      </trkpt>
      <trkpt lat="46.38711" lon="6.84965">
        <ele>388</ele>
        <time>2019-06-11T21:05:19Z</time>
      </trkpt>
      <trkpt lat="46.38734" lon="6.84927">
        <ele>384</ele>
        <time>2019-06-11T21:05:25Z</time>
      </trkpt>
      <trkpt lat="46.38747" lon="6.84899">
        <ele>382</ele>
        <time>2019-06-11T21:05:29Z</time>
      </trkpt>
      <trkpt lat="46.38757" lon="6.84858">
        <ele>384</ele>
        <time>2019-06-11T21:05:35Z</time>
      </trkpt>
      <trkpt lat="46.38761" lon="6.84822">
        <ele>385</ele>
        <time>2019-06-11T21:05:39Z</time>
      </trkpt>
      <trkpt lat="46.38759" lon="6.84595">
        <ele>387</ele>
        <time>2019-06-11T21:06:07Z</time>
      </trkpt>
      <trkpt lat="46.38755" lon="6.84505">
        <ele>388</ele>
        <time>2019-06-11T21:06:18Z</time>
      </trkpt>
      <trkpt lat="46.38752" lon="6.84483">
        <ele>388</ele>
        <time>2019-06-11T21:06:21Z</time>
      </trkpt>
      <trkpt lat="46.38714" lon="6.84216">
        <ele>390</ele>
        <time>2019-06-11T21:06:54Z</time>
      </trkpt>
      <trkpt lat="46.38667" lon="6.83923">
        <ele>396</ele>
        <time>2019-06-11T21:07:31Z</time>
      </trkpt>
      <trkpt lat="46.38549" lon="6.83228">
        <ele>401</ele>
        <time>2019-06-11T21:08:59Z</time>
      </trkpt>
      <trkpt lat="46.38536" lon="6.83116">
        <ele>400</ele>
        <time>2019-06-11T21:09:13Z</time>
      </trkpt>
      <trkpt lat="46.38531" lon="6.83043">
        <ele>395</ele>
        <time>2019-06-11T21:09:22Z</time>
      </trkpt>
      <trkpt lat="46.38531" lon="6.83006">
        <ele>393</ele>
        <time>2019-06-11T21:09:27Z</time>
      </trkpt>
      <trkpt lat="46.38534" lon="6.82974">
        <ele>393</ele>
        <time>2019-06-11T21:09:30Z</time>
      </trkpt>
      <trkpt lat="46.38537" lon="6.82946">
        <ele>393</ele>
        <time>2019-06-11T21:09:34Z</time>
      </trkpt>
      <trkpt lat="46.38555" lon="6.82868">
        <ele>390</ele>
        <time>2019-06-11T21:09:44Z</time>
      </trkpt>
      <trkpt lat="46.38619" lon="6.82674">
        <ele>390</ele>
        <time>2019-06-11T21:10:10Z</time>
      </trkpt>
      <trkpt lat="46.38629" lon="6.8263">
        <ele>390</ele>
        <time>2019-06-11T21:10:16Z</time>
      </trkpt>
      <trkpt lat="46.38656" lon="6.82457">
        <ele>396</ele>
        <time>2019-06-11T21:10:38Z</time>
      </trkpt>
      <trkpt lat="46.38665" lon="6.82412">
        <ele>396</ele>
        <time>2019-06-11T21:10:44Z</time>
      </trkpt>
      <trkpt lat="46.38689" lon="6.8234">
        <ele>399</ele>
        <time>2019-06-11T21:10:53Z</time>
      </trkpt>
      <trkpt lat="46.38703" lon="6.8231">
        <ele>398</ele>
        <time>2019-06-11T21:10:58Z</time>
      </trkpt>
      <trkpt lat="46.38751" lon="6.82225">
        <ele>382</ele>
        <time>2019-06-11T21:11:11Z</time>
      </trkpt>
      <trkpt lat="46.38759" lon="6.82203">
        <ele>383</ele>
        <time>2019-06-11T21:11:14Z</time>
      </trkpt>
      <trkpt lat="46.38774" lon="6.82138">
        <ele>385</ele>
        <time>2019-06-11T21:11:23Z</time>
      </trkpt>
      <trkpt lat="46.38884" lon="6.81753">
        <ele>387</ele>
        <time>2019-06-11T21:12:14Z</time>
      </trkpt>
      <trkpt lat="46.389" lon="6.81717">
        <ele>386</ele>
        <time>2019-06-11T21:12:19Z</time>
      </trkpt>
      <trkpt lat="46.38906" lon="6.81705">
        <ele>385</ele>
        <time>2019-06-11T21:12:21Z</time>
      </trkpt>
      <trkpt lat="46.38936" lon="6.8167">
        <ele>382</ele>
        <time>2019-06-11T21:12:28Z</time>
      </trkpt>
      <trkpt lat="46.38992" lon="6.81619">
        <ele>377</ele>
        <time>2019-06-11T21:12:40Z</time>
      </trkpt>
      <trkpt lat="46.39006" lon="6.81599">
        <ele>377</ele>
        <time>2019-06-11T21:12:43Z</time>
      </trkpt>
      <trkpt lat="46.39015" lon="6.81574">
        <ele>378</ele>
        <time>2019-06-11T21:12:47Z</time>
      </trkpt>
      <trkpt lat="46.39019" lon="6.81546">
        <ele>380</ele>
        <time>2019-06-11T21:12:50Z</time>
      </trkpt>
      <trkpt lat="46.39015" lon="6.8144">
        <ele>391</ele>
        <time>2019-06-11T21:13:03Z</time>
      </trkpt>
      <trkpt lat="46.39016" lon="6.81394">
        <ele>394</ele>
        <time>2019-06-11T21:13:09Z</time>
      </trkpt>
      <trkpt lat="46.39022" lon="6.81323">
        <ele>397</ele>
        <time>2019-06-11T21:13:18Z</time>
      </trkpt>
      <trkpt lat="46.39033" lon="6.81253">
        <ele>397</ele>
        <time>2019-06-11T21:13:26Z</time>
      </trkpt>
      <trkpt lat="46.39062" lon="6.81087">
        <ele>391</ele>
        <time>2019-06-11T21:13:47Z</time>
      </trkpt>
      <trkpt lat="46.39073" lon="6.81041">
        <ele>388</ele>
        <time>2019-06-11T21:13:53Z</time>
      </trkpt>
      <trkpt lat="46.39088" lon="6.80985">
        <ele>386</ele>
        <time>2019-06-11T21:14:01Z</time>
      </trkpt>
      <trkpt lat="46.39101" lon="6.80955">
        <ele>386</ele>
        <time>2019-06-11T21:14:05Z</time>
      </trkpt>
      <trkpt lat="46.39147" lon="6.80881">
        <ele>384</ele>
        <time>2019-06-11T21:14:17Z</time>
      </trkpt>
      <trkpt lat="46.39169" lon="6.80841">
        <ele>385</ele>
        <time>2019-06-11T21:14:24Z</time>
      </trkpt>
      <trkpt lat="46.39198" lon="6.80784">
        <ele>384</ele>
        <time>2019-06-11T21:14:32Z</time>
      </trkpt>
      <trkpt lat="46.39215" lon="6.80729">
        <ele>383</ele>
        <time>2019-06-11T21:14:40Z</time>
      </trkpt>
      <trkpt lat="46.3924" lon="6.80624">
        <ele>387</ele>
        <time>2019-06-11T21:14:53Z</time>
      </trkpt>
      <trkpt lat="46.39246" lon="6.80623">
        <ele>386</ele>
        <time>2019-06-11T21:14:54Z</time>
      </trkpt>
      <trkpt lat="46.39254" lon="6.80609">
        <ele>386</ele>
        <time>2019-06-11T21:14:57Z</time>
      </trkpt>
      <trkpt lat="46.39265" lon="6.80598">
        <ele>385</ele>
        <time>2019-06-11T21:14:59Z</time>
      </trkpt>
      <trkpt lat="46.39298" lon="6.80573">
        <ele>383</ele>
        <time>2019-06-11T21:15:06Z</time>
      </trkpt>
      <trkpt lat="46.39309" lon="6.80572">
        <ele>381</ele>
        <time>2019-06-11T21:15:08Z</time>
      </trkpt>
      <trkpt lat="46.39343" lon="6.80577">
        <ele>377</ele>
        <time>2019-06-11T21:15:14Z</time>
      </trkpt>
      <trkpt lat="46.39356" lon="6.80571">
        <ele>376</ele>
        <time>2019-06-11T21:15:16Z</time>
      </trkpt>
      <trkpt lat="46.39369" lon="6.80559">
        <ele>376</ele>
        <time>2019-06-11T21:15:19Z</time>
      </trkpt>
      <trkpt lat="46.39383" lon="6.80536">
        <ele>376</ele>
        <time>2019-06-11T21:15:23Z</time>
      </trkpt>
      <trkpt lat="46.3939" lon="6.8052">
        <ele>376</ele>
        <time>2019-06-11T21:15:25Z</time>
      </trkpt>
      <trkpt lat="46.39391" lon="6.80504">
        <ele>377</ele>
        <time>2019-06-11T21:15:27Z</time>
      </trkpt>
      <trkpt lat="46.39396" lon="6.80479">
        <ele>377</ele>
        <time>2019-06-11T21:15:30Z</time>
      </trkpt>
      <trkpt lat="46.3941" lon="6.80481">
        <ele>376</ele>
        <time>2019-06-11T21:15:33Z</time>
      </trkpt>
      <trkpt lat="46.39417" lon="6.80479">
        <ele>375</ele>
        <time>2019-06-11T21:15:34Z</time>
      </trkpt>
      <trkpt lat="46.39421" lon="6.80469">
        <ele>375</ele>
        <time>2019-06-11T21:15:35Z</time>
      </trkpt>
      <trkpt lat="46.39424" lon="6.80406">
        <ele>377</ele>
        <time>2019-06-11T21:15:43Z</time>
      </trkpt>
      <trkpt lat="46.39421" lon="6.80347">
        <ele>377</ele>
        <time>2019-06-11T21:15:50Z</time>
      </trkpt>
      <trkpt lat="46.39416" lon="6.80307">
        <ele>378</ele>
        <time>2019-06-11T21:15:55Z</time>
      </trkpt>
      <trkpt lat="46.3937" lon="6.80076">
        <ele>382</ele>
        <time>2019-06-11T21:16:25Z</time>
      </trkpt>
      <trkpt lat="46.39362" lon="6.80021">
        <ele>383</ele>
        <time>2019-06-11T21:16:32Z</time>
      </trkpt>
      <trkpt lat="46.3935" lon="6.798">
        <ele>379</ele>
        <time>2019-06-11T21:16:59Z</time>
      </trkpt>
      <trkpt lat="46.39346" lon="6.79764">
        <ele>379</ele>
        <time>2019-06-11T21:17:03Z</time>
      </trkpt>
      <trkpt lat="46.39323" lon="6.79664">
        <ele>379</ele>
        <time>2019-06-11T21:17:16Z</time>
      </trkpt>
      <trkpt lat="46.3931" lon="6.7962">
        <ele>379</ele>
        <time>2019-06-11T21:17:22Z</time>
      </trkpt>
      <trkpt lat="46.39287" lon="6.79566">
        <ele>381</ele>
        <time>2019-06-11T21:17:30Z</time>
      </trkpt>
      <trkpt lat="46.3926" lon="6.79513">
        <ele>382</ele>
        <time>2019-06-11T21:17:38Z</time>
      </trkpt>
      <trkpt lat="46.3925" lon="6.79479">
        <ele>383</ele>
        <time>2019-06-11T21:17:43Z</time>
      </trkpt>
      <trkpt lat="46.39245" lon="6.79435">
        <ele>385</ele>
        <time>2019-06-11T21:17:48Z</time>
      </trkpt>
      <trkpt lat="46.39241" lon="6.79426">
        <ele>386</ele>
        <time>2019-06-11T21:17:49Z</time>
      </trkpt>
      <trkpt lat="46.39238" lon="6.79425">
        <ele>387</ele>
        <time>2019-06-11T21:17:50Z</time>
      </trkpt>
      <trkpt lat="46.39254" lon="6.79248">
        <ele>386</ele>
        <time>2019-06-11T21:18:12Z</time>
      </trkpt>
      <trkpt lat="46.39254" lon="6.79223">
        <ele>386</ele>
        <time>2019-06-11T21:18:15Z</time>
      </trkpt>
      <trkpt lat="46.39251" lon="6.79133">
        <ele>389</ele>
        <time>2019-06-11T21:18:26Z</time>
      </trkpt>
      <trkpt lat="46.39251" lon="6.79108">
        <ele>389</ele>
        <time>2019-06-11T21:18:29Z</time>
      </trkpt>
      <trkpt lat="46.39254" lon="6.79071">
        <ele>390</ele>
        <time>2019-06-11T21:18:34Z</time>
      </trkpt>
      <trkpt lat="46.39267" lon="6.79016">
        <ele>391</ele>
        <time>2019-06-11T21:18:41Z</time>
      </trkpt>
      <trkpt lat="46.39276" lon="6.7899">
        <ele>391</ele>
        <time>2019-06-11T21:18:44Z</time>
      </trkpt>
      <trkpt lat="46.39337" lon="6.78866">
        <ele>391</ele>
        <time>2019-06-11T21:19:03Z</time>
      </trkpt>
      <trkpt lat="46.39372" lon="6.78788">
        <ele>390</ele>
        <time>2019-06-11T21:19:14Z</time>
      </trkpt>
      <trkpt lat="46.39377" lon="6.7877">
        <ele>389</ele>
        <time>2019-06-11T21:19:17Z</time>
      </trkpt>
      <trkpt lat="46.39379" lon="6.78752">
        <ele>389</ele>
        <time>2019-06-11T21:19:19Z</time>
      </trkpt>
      <trkpt lat="46.3938" lon="6.78688">
        <ele>394</ele>
        <time>2019-06-11T21:19:27Z</time>
      </trkpt>
      <trkpt lat="46.39382" lon="6.78675">
        <ele>395</ele>
        <time>2019-06-11T21:19:29Z</time>
      </trkpt>
      <trkpt lat="46.39417" lon="6.78531">
        <ele>391</ele>
        <time>2019-06-11T21:19:47Z</time>
      </trkpt>
      <trkpt lat="46.39425" lon="6.78487">
        <ele>391</ele>
        <time>2019-06-11T21:19:53Z</time>
      </trkpt>
      <trkpt lat="46.3943" lon="6.78441">
        <ele>391</ele>
        <time>2019-06-11T21:19:59Z</time>
      </trkpt>
      <trkpt lat="46.39434" lon="6.78369">
        <ele>392</ele>
        <time>2019-06-11T21:20:07Z</time>
      </trkpt>
      <trkpt lat="46.39441" lon="6.78323">
        <ele>391</ele>
        <time>2019-06-11T21:20:13Z</time>
      </trkpt>
      <trkpt lat="46.39449" lon="6.78292">
        <ele>391</ele>
        <time>2019-06-11T21:20:17Z</time>
      </trkpt>
      <trkpt lat="46.39507" lon="6.78107">
        <ele>387</ele>
        <time>2019-06-11T21:20:42Z</time>
      </trkpt>
      <trkpt lat="46.39581" lon="6.77889">
        <ele>390</ele>
        <time>2019-06-11T21:21:12Z</time>
      </trkpt>
      <trkpt lat="46.3959" lon="6.77865">
        <ele>391</ele>
        <time>2019-06-11T21:21:15Z</time>
      </trkpt>
      <trkpt lat="46.39599" lon="6.77848">
        <ele>391</ele>
        <time>2019-06-11T21:21:18Z</time>
      </trkpt>
      <trkpt lat="46.39619" lon="6.77814">
        <ele>390</ele>
        <time>2019-06-11T21:21:24Z</time>
      </trkpt>
      <trkpt lat="46.39626" lon="6.77798">
        <ele>390</ele>
        <time>2019-06-11T21:21:26Z</time>
      </trkpt>
      <trkpt lat="46.39696" lon="6.77599">
        <ele>391</ele>
        <time>2019-06-11T21:21:53Z</time>
      </trkpt>
      <trkpt lat="46.39703" lon="6.77568">
        <ele>391</ele>
        <time>2019-06-11T21:21:57Z</time>
      </trkpt>
      <trkpt lat="46.39707" lon="6.77532">
        <ele>390</ele>
        <time>2019-06-11T21:22:02Z</time>
      </trkpt>
      <trkpt lat="46.39707" lon="6.77507">
        <ele>390</ele>
        <time>2019-06-11T21:22:05Z</time>
      </trkpt>
      <trkpt lat="46.397" lon="6.77271">
        <ele>393</ele>
        <time>2019-06-11T21:22:34Z</time>
      </trkpt>
      <trkpt lat="46.39701" lon="6.77228">
        <ele>398</ele>
        <time>2019-06-11T21:22:39Z</time>
      </trkpt>
      <trkpt lat="46.39703" lon="6.77212">
        <ele>399</ele>
        <time>2019-06-11T21:22:41Z</time>
      </trkpt>
      <trkpt lat="46.39711" lon="6.77181">
        <ele>400</ele>
        <time>2019-06-11T21:22:45Z</time>
      </trkpt>
      <trkpt lat="46.39744" lon="6.77077">
        <ele>394</ele>
        <time>2019-06-11T21:22:59Z</time>
      </trkpt>
      <trkpt lat="46.39754" lon="6.77054">
        <ele>392</ele>
        <time>2019-06-11T21:23:03Z</time>
      </trkpt>
      <trkpt lat="46.39779" lon="6.77006">
        <ele>391</ele>
        <time>2019-06-11T21:23:10Z</time>
      </trkpt>
      <trkpt lat="46.39874" lon="6.76769">
        <ele>385</ele>
        <time>2019-06-11T21:23:44Z</time>
      </trkpt>
      <trkpt lat="46.39881" lon="6.76738">
        <ele>385</ele>
        <time>2019-06-11T21:23:48Z</time>
      </trkpt>
      <trkpt lat="46.39899" lon="6.76621">
        <ele>385</ele>
        <time>2019-06-11T21:24:02Z</time>
      </trkpt>
      <trkpt lat="46.39906" lon="6.76588">
        <ele>384</ele>
        <time>2019-06-11T21:24:06Z</time>
      </trkpt>
      <trkpt lat="46.39917" lon="6.76555">
        <ele>384</ele>
        <time>2019-06-11T21:24:11Z</time>
      </trkpt>
      <trkpt lat="46.39937" lon="6.76509">
        <ele>385</ele>
        <time>2019-06-11T21:24:18Z</time>
      </trkpt>
      <trkpt lat="46.3995" lon="6.76468">
        <ele>386</ele>
        <time>2019-06-11T21:24:23Z</time>
      </trkpt>
      <trkpt lat="46.39975" lon="6.76376">
        <ele>386</ele>
        <time>2019-06-11T21:24:35Z</time>
      </trkpt>
      <trkpt lat="46.39988" lon="6.76311">
        <ele>387</ele>
        <time>2019-06-11T21:24:44Z</time>
      </trkpt>
      <trkpt lat="46.40009" lon="6.76083">
        <ele>387</ele>
        <time>2019-06-11T21:25:12Z</time>
      </trkpt>
      <trkpt lat="46.40026" lon="6.75965">
        <ele>392</ele>
        <time>2019-06-11T21:25:27Z</time>
      </trkpt>
      <trkpt lat="46.40035" lon="6.75931">
        <ele>395</ele>
        <time>2019-06-11T21:25:31Z</time>
      </trkpt>
      <trkpt lat="46.40054" lon="6.7589">
        <ele>395</ele>
        <time>2019-06-11T21:25:37Z</time>
      </trkpt>
      <trkpt lat="46.40068" lon="6.75865">
        <ele>394</ele>
        <time>2019-06-11T21:25:41Z</time>
      </trkpt>
      <trkpt lat="46.40081" lon="6.7585">
        <ele>391</ele>
        <time>2019-06-11T21:25:44Z</time>
      </trkpt>
      <trkpt lat="46.40124" lon="6.7582">
        <ele>388</ele>
        <time>2019-06-11T21:25:53Z</time>
      </trkpt>
      <trkpt lat="46.40146" lon="6.75797">
        <ele>387</ele>
        <time>2019-06-11T21:25:57Z</time>
      </trkpt>
      <trkpt lat="46.40167" lon="6.7577">
        <ele>387</ele>
        <time>2019-06-11T21:26:02Z</time>
      </trkpt>
      <trkpt lat="46.40188" lon="6.75736">
        <ele>386</ele>
        <time>2019-06-11T21:26:08Z</time>
      </trkpt>
      <trkpt lat="46.40248" lon="6.75554">
        <ele>387</ele>
        <time>2019-06-11T21:26:33Z</time>
      </trkpt>
      <trkpt lat="46.40269" lon="6.75497">
        <ele>386</ele>
        <time>2019-06-11T21:26:41Z</time>
      </trkpt>
      <trkpt lat="46.40269" lon="6.75486">
        <ele>387</ele>
        <time>2019-06-11T21:26:42Z</time>
      </trkpt>
      <trkpt lat="46.40268" lon="6.75473">
        <ele>387</ele>
        <time>2019-06-11T21:26:44Z</time>
      </trkpt>
      <trkpt lat="46.40259" lon="6.75435">
        <ele>390</ele>
        <time>2019-06-11T21:26:49Z</time>
      </trkpt>
      <trkpt lat="46.40254" lon="6.75402">
        <ele>393</ele>
        <time>2019-06-11T21:26:53Z</time>
      </trkpt>
      <trkpt lat="46.40259" lon="6.75354">
        <ele>396</ele>
        <time>2019-06-11T21:26:59Z</time>
      </trkpt>
      <trkpt lat="46.40286" lon="6.75243">
        <ele>397</ele>
        <time>2019-06-11T21:27:13Z</time>
      </trkpt>
      <trkpt lat="46.40343" lon="6.75027">
        <ele>386</ele>
        <time>2019-06-11T21:27:41Z</time>
      </trkpt>
      <trkpt lat="46.40368" lon="6.74922">
        <ele>383</ele>
        <time>2019-06-11T21:27:55Z</time>
      </trkpt>
      <trkpt lat="46.40376" lon="6.74875">
        <ele>382</ele>
        <time>2019-06-11T21:28:01Z</time>
      </trkpt>
      <trkpt lat="46.40378" lon="6.74847">
        <ele>381</ele>
        <time>2019-06-11T21:28:04Z</time>
      </trkpt>
      <trkpt lat="46.40381" lon="6.74784">
        <ele>381</ele>
        <time>2019-06-11T21:28:12Z</time>
      </trkpt>
      <trkpt lat="46.40378" lon="6.74536">
        <ele>395</ele>
        <time>2019-06-11T21:28:43Z</time>
      </trkpt>
      <trkpt lat="46.40381" lon="6.74505">
        <ele>397</ele>
        <time>2019-06-11T21:28:47Z</time>
      </trkpt>
      <trkpt lat="46.40394" lon="6.74442">
        <ele>397</ele>
        <time>2019-06-11T21:28:55Z</time>
      </trkpt>
      <trkpt lat="46.40396" lon="6.7442">
        <ele>398</ele>
        <time>2019-06-11T21:28:57Z</time>
      </trkpt>
      <trkpt lat="46.40394" lon="6.74394">
        <ele>400</ele>
        <time>2019-06-11T21:29:01Z</time>
      </trkpt>
      <trkpt lat="46.40386" lon="6.74357">
        <ele>407</ele>
        <time>2019-06-11T21:29:05Z</time>
      </trkpt>
      <trkpt lat="46.40385" lon="6.74323">
        <ele>410</ele>
        <time>2019-06-11T21:29:09Z</time>
      </trkpt>
      <trkpt lat="46.40388" lon="6.74299">
        <ele>410</ele>
        <time>2019-06-11T21:29:12Z</time>
      </trkpt>
      <trkpt lat="46.40418" lon="6.74157">
        <ele>400</ele>
        <time>2019-06-11T21:29:31Z</time>
      </trkpt>
      <trkpt lat="46.40455" lon="6.73927">
        <ele>408</ele>
        <time>2019-06-11T21:30:00Z</time>
      </trkpt>
      <trkpt lat="46.40459" lon="6.73866">
        <ele>408</ele>
        <time>2019-06-11T21:30:07Z</time>
      </trkpt>
      <trkpt lat="46.40464" lon="6.73669">
        <ele>420</ele>
        <time>2019-06-11T21:30:31Z</time>
      </trkpt>
      <trkpt lat="46.40467" lon="6.73603">
        <ele>429</ele>
        <time>2019-06-11T21:30:39Z</time>
      </trkpt>
      <trkpt lat="46.4047" lon="6.73569">
        <ele>432</ele>
        <time>2019-06-11T21:30:44Z</time>
      </trkpt>
      <trkpt lat="46.40475" lon="6.73542">
        <ele>430</ele>
        <time>2019-06-11T21:30:47Z</time>
      </trkpt>
      <trkpt lat="46.405" lon="6.73461">
        <ele>408</ele>
        <time>2019-06-11T21:30:58Z</time>
      </trkpt>
      <trkpt lat="46.40507" lon="6.73425">
        <ele>413</ele>
        <time>2019-06-11T21:31:03Z</time>
      </trkpt>
      <trkpt lat="46.40515" lon="6.73368">
        <ele>416</ele>
        <time>2019-06-11T21:31:10Z</time>
      </trkpt>
      <trkpt lat="46.40521" lon="6.73342">
        <ele>416</ele>
        <time>2019-06-11T21:31:13Z</time>
      </trkpt>
      <trkpt lat="46.40531" lon="6.7331">
        <ele>410</ele>
        <time>2019-06-11T21:31:17Z</time>
      </trkpt>
      <trkpt lat="46.4055" lon="6.7326">
        <ele>399</ele>
        <time>2019-06-11T21:31:24Z</time>
      </trkpt>
      <trkpt lat="46.4056" lon="6.73221">
        <ele>394</ele>
        <time>2019-06-11T21:31:29Z</time>
      </trkpt>
      <trkpt lat="46.40624" lon="6.72895">
        <ele>389</ele>
        <time>2019-06-11T21:32:11Z</time>
      </trkpt>
      <trkpt lat="46.40635" lon="6.72832">
        <ele>390</ele>
        <time>2019-06-11T21:32:19Z</time>
      </trkpt>
      <trkpt lat="46.40637" lon="6.72805">
        <ele>389</ele>
        <time>2019-06-11T21:32:22Z</time>
      </trkpt>
      <trkpt lat="46.40636" lon="6.72701">
        <ele>392</ele>
        <time>2019-06-11T21:32:35Z</time>
      </trkpt>
      <trkpt lat="46.40639" lon="6.72677">
        <ele>392</ele>
        <time>2019-06-11T21:32:38Z</time>
      </trkpt>
      <trkpt lat="46.40647" lon="6.72642">
        <ele>392</ele>
        <time>2019-06-11T21:32:43Z</time>
      </trkpt>
      <trkpt lat="46.40682" lon="6.72571">
        <ele>389</ele>
        <time>2019-06-11T21:32:53Z</time>
      </trkpt>
      <trkpt lat="46.40697" lon="6.72544">
        <ele>388</ele>
        <time>2019-06-11T21:32:58Z</time>
      </trkpt>
      <trkpt lat="46.40715" lon="6.72501">
        <ele>387</ele>
        <time>2019-06-11T21:33:04Z</time>
      </trkpt>
      <trkpt lat="46.40728" lon="6.72461">
        <ele>386</ele>
        <time>2019-06-11T21:33:09Z</time>
      </trkpt>
      <trkpt lat="46.40734" lon="6.7243">
        <ele>387</ele>
        <time>2019-06-11T21:33:13Z</time>
      </trkpt>
      <trkpt lat="46.40743" lon="6.72369">
        <ele>387</ele>
        <time>2019-06-11T21:33:21Z</time>
      </trkpt>
      <trkpt lat="46.40744" lon="6.72352">
        <ele>387</ele>
        <time>2019-06-11T21:33:23Z</time>
      </trkpt>
      <trkpt lat="46.4074" lon="6.72305">
        <ele>388</ele>
        <time>2019-06-11T21:33:29Z</time>
      </trkpt>
      <trkpt lat="46.40719" lon="6.72214">
        <ele>393</ele>
        <time>2019-06-11T21:33:40Z</time>
      </trkpt>
      <trkpt lat="46.40713" lon="6.72178">
        <ele>393</ele>
        <time>2019-06-11T21:33:45Z</time>
      </trkpt>
      <trkpt lat="46.40711" lon="6.72161">
        <ele>393</ele>
        <time>2019-06-11T21:33:47Z</time>
      </trkpt>
      <trkpt lat="46.40707" lon="6.72106">
        <ele>392</ele>
        <time>2019-06-11T21:33:54Z</time>
      </trkpt>
      <trkpt lat="46.4071" lon="6.72043">
        <ele>391</ele>
        <time>2019-06-11T21:34:02Z</time>
      </trkpt>
      <trkpt lat="46.40719" lon="6.71979">
        <ele>391</ele>
        <time>2019-06-11T21:34:10Z</time>
      </trkpt>
      <trkpt lat="46.40749" lon="6.71852">
        <ele>386</ele>
        <time>2019-06-11T21:34:26Z</time>
      </trkpt>
      <trkpt lat="46.40753" lon="6.71833">
        <ele>385</ele>
        <time>2019-06-11T21:34:29Z</time>
      </trkpt>
      <trkpt lat="46.40753" lon="6.71794">
        <ele>386</ele>
        <time>2019-06-11T21:34:33Z</time>
      </trkpt>
      <trkpt lat="46.40748" lon="6.71744">
        <ele>388</ele>
        <time>2019-06-11T21:34:40Z</time>
      </trkpt>
      <trkpt lat="46.4075" lon="6.7168">
        <ele>389</ele>
        <time>2019-06-11T21:34:47Z</time>
      </trkpt>
      <trkpt lat="46.40748" lon="6.71639">
        <ele>389</ele>
        <time>2019-06-11T21:34:52Z</time>
      </trkpt>
      <trkpt lat="46.40733" lon="6.71531">
        <ele>398</ele>
        <time>2019-06-11T21:35:06Z</time>
      </trkpt>
      <trkpt lat="46.40737" lon="6.71494">
        <ele>397</ele>
        <time>2019-06-11T21:35:11Z</time>
      </trkpt>
      <trkpt lat="46.40747" lon="6.71445">
        <ele>393</ele>
        <time>2019-06-11T21:35:17Z</time>
      </trkpt>
      <trkpt lat="46.40763" lon="6.71378">
        <ele>391</ele>
        <time>2019-06-11T21:35:26Z</time>
      </trkpt>
      <trkpt lat="46.40766" lon="6.71354">
        <ele>392</ele>
        <time>2019-06-11T21:35:29Z</time>
      </trkpt>
      <trkpt lat="46.40768" lon="6.71252">
        <ele>400</ele>
        <time>2019-06-11T21:35:41Z</time>
      </trkpt>
      <trkpt lat="46.40761" lon="6.71212">
        <ele>409</ele>
        <time>2019-06-11T21:35:46Z</time>
      </trkpt>
      <trkpt lat="46.40751" lon="6.71187">
        <ele>417</ele>
        <time>2019-06-11T21:35:50Z</time>
      </trkpt>
      <trkpt lat="46.40751" lon="6.71136">
        <ele>423</ele>
        <time>2019-06-11T21:35:56Z</time>
      </trkpt>
      <trkpt lat="46.4078" lon="6.70871">
        <ele>408</ele>
        <time>2019-06-11T21:36:29Z</time>
      </trkpt>
      <trkpt lat="46.40777" lon="6.70783">
        <ele>412</ele>
        <time>2019-06-11T21:36:40Z</time>
      </trkpt>
      <trkpt lat="46.40779" lon="6.70661">
        <ele>408</ele>
        <time>2019-06-11T21:36:55Z</time>
      </trkpt>
      <trkpt lat="46.40774" lon="6.70604">
        <ele>404</ele>
        <time>2019-06-11T21:37:02Z</time>
      </trkpt>
      <trkpt lat="46.40761" lon="6.70513">
        <ele>400</ele>
        <time>2019-06-11T21:37:13Z</time>
      </trkpt>
      <trkpt lat="46.40756" lon="6.70444">
        <ele>400</ele>
        <time>2019-06-11T21:37:22Z</time>
      </trkpt>
      <trkpt lat="46.40756" lon="6.70359">
        <ele>399</ele>
        <time>2019-06-11T21:37:32Z</time>
      </trkpt>
      <trkpt lat="46.4078" lon="6.69946">
        <ele>398</ele>
        <time>2019-06-11T21:38:23Z</time>
      </trkpt>
      <trkpt lat="46.40793" lon="6.69798">
        <ele>399</ele>
        <time>2019-06-11T21:38:41Z</time>
      </trkpt>
      <trkpt lat="46.408" lon="6.69762">
        <ele>397</ele>
        <time>2019-06-11T21:38:46Z</time>
      </trkpt>
      <trkpt lat="46.40803" lon="6.69711">
        <ele>396</ele>
        <time>2019-06-11T21:38:52Z</time>
      </trkpt>
      <trkpt lat="46.40802" lon="6.69656">
        <ele>396</ele>
        <time>2019-06-11T21:38:59Z</time>
      </trkpt>
      <trkpt lat="46.40785" lon="6.69399">
        <ele>392</ele>
        <time>2019-06-11T21:39:30Z</time>
      </trkpt>
      <trkpt lat="46.40751" lon="6.68826">
        <ele>392</ele>
        <time>2019-06-11T21:40:41Z</time>
      </trkpt>
      <trkpt lat="46.40745" lon="6.68771">
        <ele>391</ele>
        <time>2019-06-11T21:40:48Z</time>
      </trkpt>
      <trkpt lat="46.40727" lon="6.687">
        <ele>392</ele>
        <time>2019-06-11T21:40:57Z</time>
      </trkpt>
      <trkpt lat="46.40694" lon="6.68603">
        <ele>393</ele>
        <time>2019-06-11T21:41:10Z</time>
      </trkpt>
      <trkpt lat="46.4068" lon="6.68554">
        <ele>393</ele>
        <time>2019-06-11T21:41:17Z</time>
      </trkpt>
      <trkpt lat="46.40668" lon="6.68501">
        <ele>391</ele>
        <time>2019-06-11T21:41:24Z</time>
      </trkpt>
      <trkpt lat="46.40658" lon="6.68437">
        <ele>391</ele>
        <time>2019-06-11T21:41:32Z</time>
      </trkpt>
      <trkpt lat="46.40655" lon="6.68389">
        <ele>391</ele>
        <time>2019-06-11T21:41:38Z</time>
      </trkpt>
      <trkpt lat="46.40658" lon="6.68326">
        <ele>389</ele>
        <time>2019-06-11T21:41:45Z</time>
      </trkpt>
      <trkpt lat="46.40697" lon="6.67924">
        <ele>386</ele>
        <time>2019-06-11T21:42:35Z</time>
      </trkpt>
      <trkpt lat="46.407" lon="6.67849">
        <ele>385</ele>
        <time>2019-06-11T21:42:45Z</time>
      </trkpt>
      <trkpt lat="46.40696" lon="6.67791">
        <ele>385</ele>
        <time>2019-06-11T21:42:52Z</time>
      </trkpt>
      <trkpt lat="46.40685" lon="6.6773">
        <ele>387</ele>
        <time>2019-06-11T21:42:59Z</time>
      </trkpt>
      <trkpt lat="46.40663" lon="6.67653">
        <ele>387</ele>
        <time>2019-06-11T21:43:10Z</time>
      </trkpt>
      <trkpt lat="46.40507" lon="6.67156">
        <ele>386</ele>
        <time>2019-06-11T21:44:17Z</time>
      </trkpt>
      <trkpt lat="46.40487" lon="6.67088">
        <ele>387</ele>
        <time>2019-06-11T21:44:26Z</time>
      </trkpt>
      <trkpt lat="46.40473" lon="6.67019">
        <ele>388</ele>
        <time>2019-06-11T21:44:35Z</time>
      </trkpt>
      <trkpt lat="46.40431" lon="6.6676">
        <ele>385</ele>
        <time>2019-06-11T21:45:07Z</time>
      </trkpt>
      <trkpt lat="46.40425" lon="6.66705">
        <ele>388</ele>
        <time>2019-06-11T21:45:14Z</time>
      </trkpt>
      <trkpt lat="46.40436" lon="6.66478">
        <ele>382</ele>
        <time>2019-06-11T21:45:42Z</time>
      </trkpt>
      <trkpt lat="46.40438" lon="6.6641">
        <ele>380</ele>
        <time>2019-06-11T21:45:50Z</time>
      </trkpt>
      <trkpt lat="46.40435" lon="6.66267">
        <ele>380</ele>
        <time>2019-06-11T21:46:08Z</time>
      </trkpt>
      <trkpt lat="46.40437" lon="6.66205">
        <ele>381</ele>
        <time>2019-06-11T21:46:15Z</time>
      </trkpt>
      <trkpt lat="46.40442" lon="6.66095">
        <ele>380</ele>
        <time>2019-06-11T21:46:29Z</time>
      </trkpt>
      <trkpt lat="46.40445" lon="6.66079">
        <ele>380</ele>
        <time>2019-06-11T21:46:31Z</time>
      </trkpt>
      <trkpt lat="46.40457" lon="6.6581">
        <ele>378</ele>
        <time>2019-06-11T21:47:04Z</time>
      </trkpt>
      <trkpt lat="46.40497" lon="6.65383">
        <ele>376</ele>
        <time>2019-06-11T21:47:57Z</time>
      </trkpt>
      <trkpt lat="46.40506" lon="6.65309">
        <ele>376</ele>
        <time>2019-06-11T21:48:06Z</time>
      </trkpt>
      <trkpt lat="46.40517" lon="6.65241">
        <ele>378</ele>
        <time>2019-06-11T21:48:15Z</time>
      </trkpt>
      <trkpt lat="46.40567" lon="6.65">
        <ele>378</ele>
        <time>2019-06-11T21:48:46Z</time>
      </trkpt>
      <trkpt lat="46.40577" lon="6.64932">
        <ele>379</ele>
        <time>2019-06-11T21:48:54Z</time>
      </trkpt>
      <trkpt lat="46.4058" lon="6.64882">
        <ele>379</ele>
        <time>2019-06-11T21:49:00Z</time>
      </trkpt>
      <trkpt lat="46.40579" lon="6.64812">
        <ele>378</ele>
        <time>2019-06-11T21:49:09Z</time>
      </trkpt>
      <trkpt lat="46.40568" lon="6.645">
        <ele>376</ele>
        <time>2019-06-11T21:49:47Z</time>
      </trkpt>
      <trkpt lat="46.40562" lon="6.64432">
        <ele>377</ele>
        <time>2019-06-11T21:49:56Z</time>
      </trkpt>
      <trkpt lat="46.40556" lon="6.64389">
        <ele>377</ele>
        <time>2019-06-11T21:50:01Z</time>
      </trkpt>
      <trkpt lat="46.40535" lon="6.64277">
        <ele>379</ele>
        <time>2019-06-11T21:50:15Z</time>
      </trkpt>
      <trkpt lat="46.40528" lon="6.64203">
        <ele>379</ele>
        <time>2019-06-11T21:50:24Z</time>
      </trkpt>
      <trkpt lat="46.40511" lon="6.63939">
        <ele>379</ele>
        <time>2019-06-11T21:50:57Z</time>
      </trkpt>
      <trkpt lat="46.4051" lon="6.63887">
        <ele>379</ele>
        <time>2019-06-11T21:51:03Z</time>
      </trkpt>
      <trkpt lat="46.40515" lon="6.63838">
        <ele>379</ele>
        <time>2019-06-11T21:51:09Z</time>
      </trkpt>
      <trkpt lat="46.40546" lon="6.63665">
        <ele>378</ele>
        <time>2019-06-11T21:51:31Z</time>
      </trkpt>
      <trkpt lat="46.40546" lon="6.63619">
        <ele>378</ele>
        <time>2019-06-11T21:51:37Z</time>
      </trkpt>
      <trkpt lat="46.40534" lon="6.63533">
        <ele>381</ele>
        <time>2019-06-11T21:51:48Z</time>
      </trkpt>
      <trkpt lat="46.40435" lon="6.62886">
        <ele>379</ele>
        <time>2019-06-11T21:53:09Z</time>
      </trkpt>
      <trkpt lat="46.40423" lon="6.62787">
        <ele>379</ele>
        <time>2019-06-11T21:53:21Z</time>
      </trkpt>
      <trkpt lat="46.40415" lon="6.62662">
        <ele>380</ele>
        <time>2019-06-11T21:53:37Z</time>
      </trkpt>
      <trkpt lat="46.40399" lon="6.62333">
        <ele>378</ele>
        <time>2019-06-11T21:54:17Z</time>
      </trkpt>
      <trkpt lat="46.40395" lon="6.62282">
        <ele>378</ele>
        <time>2019-06-11T21:54:24Z</time>
      </trkpt>
      <trkpt lat="46.40385" lon="6.62201">
        <ele>377</ele>
        <time>2019-06-11T21:54:34Z</time>
      </trkpt>
      <trkpt lat="46.40337" lon="6.61949">
        <ele>377</ele>
        <time>2019-06-11T21:55:06Z</time>
      </trkpt>
      <trkpt lat="46.40332" lon="6.61907">
        <ele>377</ele>
        <time>2019-06-11T21:55:11Z</time>
      </trkpt>
      <trkpt lat="46.40324" lon="6.61634">
        <ele>376</ele>
        <time>2019-06-11T21:55:44Z</time>
      </trkpt>
      <trkpt lat="46.40317" lon="6.61562">
        <ele>377</ele>
        <time>2019-06-11T21:55:53Z</time>
      </trkpt>
      <trkpt lat="46.40298" lon="6.61408">
        <ele>380</ele>
        <time>2019-06-11T21:56:13Z</time>
      </trkpt>
      <trkpt lat="46.40293" lon="6.61357">
        <ele>379</ele>
        <time>2019-06-11T21:56:19Z</time>
      </trkpt>
      <trkpt lat="46.40292" lon="6.6131">
        <ele>378</ele>
        <time>2019-06-11T21:56:25Z</time>
      </trkpt>
      <trkpt lat="46.40293" lon="6.612">
        <ele>379</ele>
        <time>2019-06-11T21:56:38Z</time>
      </trkpt>
      <trkpt lat="46.4029" lon="6.61136">
        <ele>379</ele>
        <time>2019-06-11T21:56:46Z</time>
      </trkpt>
      <trkpt lat="46.40211" lon="6.60748">
        <ele>378</ele>
        <time>2019-06-11T21:57:36Z</time>
      </trkpt>
      <trkpt lat="46.40201" lon="6.60688">
        <ele>379</ele>
        <time>2019-06-11T21:57:43Z</time>
      </trkpt>
      <trkpt lat="46.40194" lon="6.60634">
        <ele>379</ele>
        <time>2019-06-11T21:57:50Z</time>
      </trkpt>
      <trkpt lat="46.40174" lon="6.60375">
        <ele>377</ele>
        <time>2019-06-11T21:58:22Z</time>
      </trkpt>
      <trkpt lat="46.40142" lon="6.6038">
        <ele>381</ele>
        <time>2019-06-11T21:58:28Z</time>
      </trkpt>
    </trkseg>
  </trk>
</gpx>